VIR10H KJFK-EGLL
Flight info
| Callsign | VIR10H |
|---|---|
| Flight time | 6h 31m |
| Altitude | 37000 |
| Route | MERIT DCT HFD DCT PUT DCT WITCH DCT ALLEX N535B UMESI/M082F390 DCT 5130N05000W 5330N04000W 5430N03000W 5430N02000W DCT NEBIN DCT OLGON/N0475F390 DCT ENJEX DCT AVZAC DCT INFEC DCT JETZI DCT AMFUL DCT ORZEB/N0422F230 P2 SIRIC |
| Aircraft | A343/H-SDE2E3FGHIJ4J5M1RWXY/LB1D1 |
Departure
| Time | 2026-05-09 10:33 |
|---|---|
| Airport | John F. Kennedy International Airport (KJFK) |
Arrival
| Time | 2026-05-09 17:04 |
|---|---|
| Airport | London Heathrow Airport (EGLL) |
| Time | Latitude | Longitude | Altitude | Speed | Heading |
|---|---|---|---|---|---|
| 2026-05-09 10:12 | 40.64393 | -73.77910 | 27 ft | 0 kts | 239° |
| 2026-05-09 10:21 | 40.64392 | -73.77913 | 26 ft | 0 kts | 239° |
| 2026-05-09 10:22 | 40.64399 | -73.77898 | 28 ft | 3 kts | 237° |
| 2026-05-09 10:22 | 40.64410 | -73.77876 | 28 ft | 3 kts | 229° |
| 2026-05-09 10:22 | 40.64424 | -73.77858 | 28 ft | 3 kts | 212° |
| 2026-05-09 10:22 | 40.64440 | -73.77848 | 27 ft | 3 kts | 168° |
| 2026-05-09 10:23 | 40.64448 | -73.77851 | 28 ft | 1 kts | 111° |
| 2026-05-09 10:23 | 40.64445 | -73.77843 | 28 ft | 4 kts | 110° |
| 2026-05-09 10:23 | 40.64443 | -73.77837 | 26 ft | 0 kts | 110° |
| 2026-05-09 10:25 | 40.64442 | -73.77834 | 24 ft | 3 kts | 110° |
| 2026-05-09 10:25 | 40.64430 | -73.77792 | 28 ft | 5 kts | 115° |
| 2026-05-09 10:25 | 40.64410 | -73.77745 | 26 ft | 6 kts | 120° |
| 2026-05-09 10:25 | 40.64385 | -73.77695 | 28 ft | 7 kts | 127° |
| 2026-05-09 10:26 | 40.64355 | -73.77647 | 29 ft | 8 kts | 131° |
| 2026-05-09 10:26 | 40.64301 | -73.77594 | 25 ft | 10 kts | 158° |
| 2026-05-09 10:26 | 40.64237 | -73.77560 | 28 ft | 10 kts | 158° |
| 2026-05-09 10:26 | 40.64187 | -73.77532 | 27 ft | 8 kts | 157° |
| 2026-05-09 10:27 | 40.64128 | -73.77500 | 26 ft | 10 kts | 157° |
| 2026-05-09 10:27 | 40.64068 | -73.77450 | 26 ft | 10 kts | 129° |
| 2026-05-09 10:27 | 40.64032 | -73.77367 | 28 ft | 10 kts | 106° |
| 2026-05-09 10:27 | 40.64056 | -73.77288 | 27 ft | 9 kts | 46° |
| 2026-05-09 10:28 | 40.64118 | -73.77232 | 28 ft | 11 kts | 31° |
| 2026-05-09 10:28 | 40.64184 | -73.77179 | 28 ft | 11 kts | 31° |
| 2026-05-09 10:28 | 40.64254 | -73.77124 | 30 ft | 12 kts | 31° |
| 2026-05-09 10:28 | 40.64331 | -73.77062 | 25 ft | 14 kts | 31° |
| 2026-05-09 10:29 | 40.64421 | -73.77003 | 26 ft | 15 kts | 19° |
| 2026-05-09 10:29 | 40.64519 | -73.76967 | 24 ft | 15 kts | 24° |
| 2026-05-09 10:29 | 40.64616 | -73.76899 | 27 ft | 17 kts | 28° |
| 2026-05-09 10:29 | 40.64718 | -73.76824 | 27 ft | 17 kts | 31° |
| 2026-05-09 10:30 | 40.64815 | -73.76747 | 30 ft | 16 kts | 31° |
| 2026-05-09 10:30 | 40.64908 | -73.76675 | 26 ft | 16 kts | 30° |
| 2026-05-09 10:30 | 40.65000 | -73.76607 | 28 ft | 14 kts | 28° |
| 2026-05-09 10:30 | 40.65078 | -73.76545 | 27 ft | 12 kts | 36° |
| 2026-05-09 10:31 | 40.65100 | -73.76487 | 28 ft | 6 kts | 91° |
| 2026-05-09 10:31 | 40.65086 | -73.76438 | 31 ft | 7 kts | 120° |
| 2026-05-09 10:31 | 40.65056 | -73.76377 | 29 ft | 10 kts | 125° |
| 2026-05-09 10:31 | 40.65005 | -73.76364 | 30 ft | 7 kts | 204° |
| 2026-05-09 10:32 | 40.64955 | -73.76407 | 26 ft | 11 kts | 212° |
| 2026-05-09 10:32 | 40.64881 | -73.76467 | 28 ft | 20 kts | 211° |
| 2026-05-09 10:32 | 40.64610 | -73.76679 | 25 ft | 72 kts | 210° |
| 2026-05-09 10:32 | 40.64033 | -73.77131 | 31 ft | 118 kts | 210° |
| 2026-05-09 10:33 | 40.63513 | -73.77537 | 31 ft | 144 kts | 211° |
| 2026-05-09 10:33 | 40.62559 | -73.78259 | 233 ft | 161 kts | 207° |
| 2026-05-09 10:33 | 40.61561 | -73.79049 | 578 ft | 175 kts | 211° |
| 2026-05-09 10:33 | 40.60211 | -73.80157 | 1370 ft | 172 kts | 214° |
| 2026-05-09 10:34 | 40.59505 | -73.80732 | 1561 ft | 186 kts | 214° |
| 2026-05-09 10:34 | 40.56976 | -73.82691 | 2156 ft | 237 kts | 204° |
| 2026-05-09 10:34 | 40.55310 | -73.82954 | 2866 ft | 250 kts | 174° |
| 2026-05-09 10:35 | 40.53631 | -73.82245 | 3671 ft | 258 kts | 160° |
| 2026-05-09 10:35 | 40.51986 | -73.81224 | 4426 ft | 265 kts | 158° |
| 2026-05-09 10:35 | 40.50323 | -73.80123 | 5229 ft | 270 kts | 158° |
| 2026-05-09 10:35 | 40.48651 | -73.78975 | 6012 ft | 275 kts | 158° |
| 2026-05-09 10:36 | 40.46949 | -73.77771 | 6763 ft | 280 kts | 158° |
| 2026-05-09 10:36 | 40.45225 | -73.76516 | 7489 ft | 285 kts | 157° |
| 2026-05-09 10:36 | 40.43592 | -73.74961 | 8227 ft | 297 kts | 140° |
| 2026-05-09 10:36 | 40.42429 | -73.72704 | 8927 ft | 313 kts | 113° |
| 2026-05-09 10:37 | 40.42171 | -73.69857 | 9563 ft | 323 kts | 81° |
| 2026-05-09 10:37 | 40.42961 | -73.67109 | 9938 ft | 321 kts | 50° |
| 2026-05-09 10:37 | 40.44571 | -73.65199 | 10015 ft | 306 kts | 22° |
| 2026-05-09 10:37 | 40.46491 | -73.64072 | 9996 ft | 299 kts | 11° |
| 2026-05-09 10:38 | 40.48470 | -73.63251 | 9999 ft | 297 kts | 8° |
| 2026-05-09 10:38 | 40.50451 | -73.62480 | 9999 ft | 297 kts | 9° |
| 2026-05-09 10:38 | 40.52418 | -73.61647 | 10038 ft | 298 kts | 11° |
| 2026-05-09 10:38 | 40.54394 | -73.60718 | 10230 ft | 307 kts | 12° |
| 2026-05-09 10:39 | 40.56449 | -73.59681 | 10462 ft | 326 kts | 14° |
| 2026-05-09 10:39 | 40.58612 | -73.58531 | 10752 ft | 342 kts | 15° |
| 2026-05-09 10:39 | 40.60837 | -73.57306 | 11038 ft | 357 kts | 15° |
| 2026-05-09 10:39 | 40.63160 | -73.56006 | 11401 ft | 369 kts | 16° |
| 2026-05-09 10:40 | 40.65547 | -73.54657 | 11931 ft | 375 kts | 15° |
| 2026-05-09 10:40 | 40.67957 | -73.53292 | 12562 ft | 378 kts | 15° |
| 2026-05-09 10:40 | 40.70379 | -73.51923 | 13256 ft | 380 kts | 15° |
| 2026-05-09 10:40 | 40.72819 | -73.50550 | 13935 ft | 382 kts | 14° |
| 2026-05-09 10:41 | 40.75278 | -73.49172 | 14510 ft | 385 kts | 15° |
| 2026-05-09 10:41 | 40.77720 | -73.47810 | 15046 ft | 389 kts | 15° |
| 2026-05-09 10:41 | 40.80225 | -73.46418 | 15580 ft | 394 kts | 14° |
| 2026-05-09 10:41 | 40.82801 | -73.44989 | 16092 ft | 399 kts | 15° |
| 2026-05-09 10:42 | 40.85325 | -73.43583 | 16656 ft | 401 kts | 15° |
| 2026-05-09 10:42 | 40.87914 | -73.42138 | 17249 ft | 404 kts | 15° |
| 2026-05-09 10:42 | 40.90517 | -73.40682 | 17833 ft | 407 kts | 15° |
| 2026-05-09 10:42 | 40.93135 | -73.39214 | 18386 ft | 410 kts | 15° |
| 2026-05-09 10:43 | 40.95778 | -73.37731 | 18837 ft | 414 kts | 15° |
| 2026-05-09 10:43 | 40.98435 | -73.36237 | 19308 ft | 417 kts | 15° |
| 2026-05-09 10:43 | 41.01120 | -73.34730 | 19747 ft | 421 kts | 15° |
| 2026-05-09 10:43 | 41.03804 | -73.33221 | 20203 ft | 424 kts | 15° |
| 2026-05-09 10:44 | 41.06538 | -73.31682 | 20662 ft | 428 kts | 14° |
| 2026-05-09 10:44 | 41.09284 | -73.30137 | 21124 ft | 431 kts | 14° |
| 2026-05-09 10:44 | 41.12055 | -73.28576 | 21470 ft | 434 kts | 17° |
| 2026-05-09 10:44 | 41.14860 | -73.26994 | 21569 ft | 446 kts | 15° |
| 2026-05-09 10:45 | 41.17765 | -73.25362 | 21782 ft | 455 kts | 15° |
| 2026-05-09 10:46 | 41.29560 | -73.18679 | 23547 ft | 466 kts | 14° |
| 2026-05-09 10:46 | 41.32554 | -73.16956 | 23765 ft | 475 kts | 17° |
| 2026-05-09 10:46 | 41.35472 | -73.14792 | 24070 ft | 488 kts | 26° |
| 2026-05-09 10:46 | 41.38163 | -73.11950 | 24522 ft | 499 kts | 37° |
| 2026-05-09 10:47 | 41.40458 | -73.08442 | 24920 ft | 510 kts | 49° |
| 2026-05-09 10:47 | 41.42373 | -73.04610 | 25335 ft | 513 kts | 53° |
| 2026-05-09 10:47 | 41.44273 | -73.00431 | 25770 ft | 514 kts | 54° |
| 2026-05-09 10:47 | 41.46064 | -72.96310 | 26194 ft | 514 kts | 55° |
| 2026-05-09 10:48 | 41.47841 | -72.92164 | 26590 ft | 514 kts | 55° |
| 2026-05-09 10:48 | 41.49599 | -72.88068 | 27000 ft | 513 kts | 55° |
| 2026-05-09 10:48 | 41.51383 | -72.83936 | 27416 ft | 512 kts | 54° |
| 2026-05-09 10:48 | 41.53178 | -72.79805 | 27772 ft | 513 kts | 54° |
| 2026-05-09 10:49 | 41.54965 | -72.75720 | 27927 ft | 519 kts | 54° |
| 2026-05-09 10:49 | 41.56822 | -72.71494 | 28067 ft | 524 kts | 54° |
| 2026-05-09 10:49 | 41.58655 | -72.67314 | 28200 ft | 530 kts | 54° |
| 2026-05-09 10:49 | 41.60527 | -72.63039 | 28325 ft | 535 kts | 54° |
| 2026-05-09 10:50 | 41.62416 | -72.58714 | 28501 ft | 539 kts | 54° |
| 2026-05-09 10:50 | 41.64309 | -72.54363 | 28698 ft | 542 kts | 54° |
| 2026-05-09 10:50 | 41.66226 | -72.50014 | 28975 ft | 543 kts | 53° |
| 2026-05-09 10:50 | 41.68177 | -72.45672 | 29400 ft | 542 kts | 53° |
| 2026-05-09 10:51 | 41.70104 | -72.41414 | 29769 ft | 541 kts | 53° |
| 2026-05-09 10:51 | 41.72051 | -72.37111 | 30128 ft | 540 kts | 53° |
| 2026-05-09 10:51 | 41.73996 | -72.32807 | 30426 ft | 539 kts | 52° |
| 2026-05-09 10:51 | 41.75907 | -72.28563 | 30722 ft | 538 kts | 52° |
| 2026-05-09 10:52 | 41.77846 | -72.24245 | 31014 ft | 538 kts | 52° |
| 2026-05-09 10:52 | 41.79766 | -72.19966 | 31322 ft | 536 kts | 52° |
| 2026-05-09 10:52 | 41.81689 | -72.15670 | 31632 ft | 536 kts | 52° |
| 2026-05-09 10:52 | 41.83598 | -72.11396 | 31985 ft | 535 kts | 52° |
| 2026-05-09 10:53 | 41.85512 | -72.07102 | 32277 ft | 534 kts | 52° |
| 2026-05-09 10:53 | 41.87410 | -72.02836 | 32550 ft | 533 kts | 52° |
| 2026-05-09 10:53 | 41.89303 | -71.98573 | 32828 ft | 532 kts | 52° |
| 2026-05-09 10:53 | 41.91201 | -71.94295 | 33111 ft | 531 kts | 52° |
| 2026-05-09 10:54 | 41.93087 | -71.90036 | 33358 ft | 531 kts | 52° |
| 2026-05-09 10:54 | 41.95069 | -71.85900 | 33618 ft | 523 kts | 45° |
| 2026-05-09 10:54 | 41.97400 | -71.82209 | 33941 ft | 513 kts | 37° |
| 2026-05-09 10:54 | 41.99860 | -71.78786 | 34224 ft | 508 kts | 36° |
| 2026-05-09 10:55 | 42.02363 | -71.75441 | 34422 ft | 507 kts | 35° |
| 2026-05-09 10:55 | 42.04898 | -71.72128 | 34546 ft | 507 kts | 34° |
| 2026-05-09 10:55 | 42.07409 | -71.68873 | 34684 ft | 508 kts | 34° |
| 2026-05-09 10:55 | 42.09959 | -71.65567 | 34846 ft | 509 kts | 34° |
| 2026-05-09 10:56 | 42.12515 | -71.62241 | 34988 ft | 510 kts | 35° |
| 2026-05-09 10:56 | 42.15062 | -71.58912 | 35176 ft | 511 kts | 35° |
| 2026-05-09 10:56 | 42.17604 | -71.55576 | 35291 ft | 511 kts | 35° |
| 2026-05-09 10:56 | 42.20149 | -71.52226 | 35455 ft | 511 kts | 36° |
| 2026-05-09 10:57 | 42.22696 | -71.48866 | 35601 ft | 511 kts | 36° |
| 2026-05-09 10:57 | 42.25247 | -71.45496 | 35725 ft | 512 kts | 36° |
| 2026-05-09 10:57 | 42.27765 | -71.42167 | 35867 ft | 513 kts | 36° |
| 2026-05-09 10:57 | 42.30318 | -71.38789 | 36016 ft | 514 kts | 36° |
| 2026-05-09 10:58 | 42.32874 | -71.35403 | 36105 ft | 515 kts | 36° |
| 2026-05-09 10:58 | 42.35439 | -71.32002 | 36245 ft | 516 kts | 36° |
| 2026-05-09 10:58 | 42.38005 | -71.28593 | 36370 ft | 516 kts | 36° |
| 2026-05-09 10:58 | 42.40562 | -71.25192 | 36504 ft | 516 kts | 36° |
| 2026-05-09 10:59 | 42.43124 | -71.21780 | 36639 ft | 517 kts | 36° |
| 2026-05-09 10:59 | 42.45687 | -71.18364 | 36765 ft | 517 kts | 36° |
| 2026-05-09 10:59 | 42.48259 | -71.14932 | 36886 ft | 518 kts | 37° |
| 2026-05-09 10:59 | 42.50831 | -71.11496 | 37003 ft | 519 kts | 37° |
| 2026-05-09 11:00 | 42.53407 | -71.08050 | 37056 ft | 521 kts | 37° |
| 2026-05-09 11:00 | 42.58534 | -71.01178 | 37053 ft | 520 kts | 37° |
| 2026-05-09 11:01 | 42.63684 | -70.94255 | 37050 ft | 520 kts | 37° |
| 2026-05-09 11:01 | 42.68619 | -70.87021 | 37048 ft | 529 kts | 47° |
| 2026-05-09 11:02 | 42.72805 | -70.78747 | 37053 ft | 532 kts | 51° |
| 2026-05-09 11:02 | 42.76829 | -70.70266 | 37093 ft | 533 kts | 51° |
| 2026-05-09 11:03 | 42.80788 | -70.61819 | 37033 ft | 532 kts | 52° |
| 2026-05-09 11:03 | 42.84784 | -70.53314 | 37021 ft | 532 kts | 52° |
| 2026-05-09 11:04 | 42.88780 | -70.44821 | 37042 ft | 532 kts | 52° |
| 2026-05-09 11:04 | 42.92779 | -70.36305 | 37042 ft | 532 kts | 52° |
| 2026-05-09 11:05 | 42.96737 | -70.27850 | 37051 ft | 531 kts | 52° |
| 2026-05-09 11:05 | 43.00719 | -70.19321 | 37036 ft | 531 kts | 52° |
| 2026-05-09 11:06 | 43.04683 | -70.10805 | 37050 ft | 531 kts | 52° |
| 2026-05-09 11:06 | 43.08642 | -70.02274 | 37053 ft | 531 kts | 52° |
| 2026-05-09 11:07 | 43.12600 | -69.93727 | 37053 ft | 537 kts | 52° |
| 2026-05-09 11:07 | 43.16616 | -69.85030 | 37050 ft | 543 kts | 52° |
| 2026-05-09 11:08 | 43.20660 | -69.76242 | 37059 ft | 548 kts | 53° |
| 2026-05-09 11:08 | 43.24715 | -69.67393 | 37061 ft | 547 kts | 53° |
| 2026-05-09 11:09 | 43.28753 | -69.58555 | 37060 ft | 546 kts | 53° |
| 2026-05-09 11:09 | 43.32783 | -69.49714 | 37070 ft | 546 kts | 53° |
| 2026-05-09 11:10 | 43.36768 | -69.40945 | 37062 ft | 545 kts | 53° |
| 2026-05-09 11:10 | 43.40781 | -69.32091 | 37061 ft | 545 kts | 53° |
| 2026-05-09 11:11 | 43.44779 | -69.23242 | 37065 ft | 545 kts | 53° |
| 2026-05-09 11:11 | 43.48777 | -69.14367 | 37063 ft | 544 kts | 54° |
| 2026-05-09 11:12 | 43.52752 | -69.05514 | 37064 ft | 543 kts | 54° |
| 2026-05-09 11:12 | 43.56726 | -68.96636 | 37065 ft | 543 kts | 54° |
| 2026-05-09 11:13 | 43.60657 | -68.87829 | 37071 ft | 543 kts | 54° |
| 2026-05-09 11:13 | 43.64544 | -68.79080 | 37073 ft | 527 kts | 54° |
| 2026-05-09 11:14 | 43.68362 | -68.70469 | 37063 ft | 525 kts | 54° |
| 2026-05-09 11:14 | 43.72178 | -68.61852 | 37067 ft | 526 kts | 54° |
| 2026-05-09 11:15 | 43.75986 | -68.53225 | 37069 ft | 525 kts | 54° |
| 2026-05-09 11:15 | 43.79790 | -68.44571 | 37066 ft | 525 kts | 54° |
| 2026-05-09 11:16 | 43.83561 | -68.35970 | 37070 ft | 525 kts | 55° |
| 2026-05-09 11:16 | 43.87342 | -68.27321 | 37060 ft | 525 kts | 55° |
| 2026-05-09 11:17 | 43.91117 | -68.18656 | 37080 ft | 524 kts | 55° |
| 2026-05-09 11:17 | 43.94883 | -68.09987 | 37069 ft | 524 kts | 55° |
| 2026-05-09 11:18 | 43.98641 | -68.01313 | 37057 ft | 524 kts | 55° |
| 2026-05-09 11:18 | 44.02390 | -67.92631 | 37066 ft | 523 kts | 56° |
| 2026-05-09 11:19 | 44.06100 | -67.84013 | 37070 ft | 522 kts | 56° |
| 2026-05-09 11:19 | 44.09829 | -67.75328 | 37065 ft | 522 kts | 56° |
| 2026-05-09 11:20 | 44.13553 | -67.66627 | 37086 ft | 522 kts | 56° |
| 2026-05-09 11:20 | 44.17257 | -67.57944 | 37068 ft | 520 kts | 56° |
| 2026-05-09 11:21 | 44.20324 | -67.50736 | 37047 ft | 519 kts | 56° |
| 2026-05-09 11:21 | 44.23998 | -67.42078 | 37062 ft | 520 kts | 56° |
| 2026-05-09 11:22 | 44.28280 | -67.31956 | 37075 ft | 520 kts | 56° |
| 2026-05-09 11:22 | 44.31350 | -67.24674 | 37068 ft | 518 kts | 57° |
| 2026-05-09 11:23 | 44.34998 | -67.15996 | 37064 ft | 518 kts | 57° |
| 2026-05-09 11:23 | 44.38649 | -67.07288 | 37057 ft | 518 kts | 57° |
| 2026-05-09 11:24 | 44.42491 | -66.98797 | 37062 ft | 514 kts | 50° |
| 2026-05-09 11:24 | 44.46833 | -66.90928 | 37049 ft | 514 kts | 48° |
| 2026-05-09 11:25 | 44.51301 | -66.83081 | 37039 ft | 514 kts | 47° |
| 2026-05-09 11:25 | 44.55760 | -66.75263 | 37060 ft | 514 kts | 48° |
| 2026-05-09 11:26 | 44.60222 | -66.67394 | 37046 ft | 514 kts | 48° |
| 2026-05-09 11:26 | 44.64633 | -66.59569 | 37040 ft | 514 kts | 48° |
| 2026-05-09 11:27 | 44.69057 | -66.51692 | 37033 ft | 514 kts | 48° |
| 2026-05-09 11:27 | 44.73482 | -66.43797 | 37034 ft | 514 kts | 49° |
| 2026-05-09 11:28 | 44.77894 | -66.35916 | 37035 ft | 513 kts | 49° |
| 2026-05-09 11:28 | 44.82312 | -66.28015 | 37035 ft | 514 kts | 49° |
| 2026-05-09 11:29 | 44.86741 | -66.20063 | 37052 ft | 514 kts | 49° |
| 2026-05-09 11:29 | 44.91112 | -66.12187 | 37043 ft | 513 kts | 49° |
| 2026-05-09 11:30 | 44.95516 | -66.04222 | 37046 ft | 514 kts | 49° |
| 2026-05-09 11:30 | 44.99916 | -65.96233 | 37071 ft | 514 kts | 49° |
| 2026-05-09 11:31 | 45.04292 | -65.88278 | 37039 ft | 513 kts | 49° |
| 2026-05-09 11:31 | 45.08681 | -65.80282 | 37036 ft | 513 kts | 49° |
| 2026-05-09 11:32 | 45.13069 | -65.72267 | 37029 ft | 517 kts | 49° |
| 2026-05-09 11:32 | 45.17472 | -65.64214 | 37031 ft | 524 kts | 50° |
| 2026-05-09 11:33 | 45.21884 | -65.56113 | 37026 ft | 530 kts | 50° |
| 2026-05-09 11:33 | 45.28579 | -65.43744 | 37022 ft | 531 kts | 50° |
| 2026-05-09 11:34 | 45.33036 | -65.35478 | 37022 ft | 529 kts | 50° |
| 2026-05-09 11:34 | 45.37512 | -65.27168 | 37020 ft | 528 kts | 50° |
| 2026-05-09 11:35 | 45.41957 | -65.18897 | 37009 ft | 528 kts | 50° |
| 2026-05-09 11:35 | 45.46415 | -65.10574 | 37021 ft | 528 kts | 51° |
| 2026-05-09 11:36 | 45.50861 | -65.02243 | 37016 ft | 527 kts | 51° |
| 2026-05-09 11:36 | 45.55289 | -64.93921 | 37015 ft | 527 kts | 51° |
| 2026-05-09 11:37 | 45.59716 | -64.85582 | 37028 ft | 527 kts | 51° |
| 2026-05-09 11:37 | 45.64138 | -64.77222 | 37006 ft | 527 kts | 51° |
| 2026-05-09 11:38 | 45.68518 | -64.68920 | 37003 ft | 526 kts | 51° |
| 2026-05-09 11:38 | 45.72956 | -64.60491 | 37005 ft | 526 kts | 51° |
| 2026-05-09 11:39 | 45.77339 | -64.52149 | 36998 ft | 526 kts | 51° |
| 2026-05-09 11:40 | 45.83918 | -64.39557 | 36995 ft | 526 kts | 51° |
| 2026-05-09 11:40 | 45.88296 | -64.31140 | 36997 ft | 526 kts | 52° |
| 2026-05-09 11:41 | 45.92678 | -64.22688 | 36988 ft | 527 kts | 52° |
| 2026-05-09 11:41 | 45.95171 | -64.17876 | 36989 ft | 527 kts | 52° |
| 2026-05-09 11:42 | 45.99514 | -64.09482 | 36993 ft | 527 kts | 52° |
| 2026-05-09 11:42 | 46.03913 | -64.00953 | 36998 ft | 527 kts | 52° |
| 2026-05-09 11:43 | 46.08269 | -63.92472 | 36990 ft | 527 kts | 52° |
| 2026-05-09 11:43 | 46.11612 | -63.85944 | 36997 ft | 527 kts | 52° |
| 2026-05-09 11:44 | 46.14296 | -63.80692 | 36995 ft | 527 kts | 52° |
| 2026-05-09 11:44 | 46.18654 | -63.72144 | 36995 ft | 527 kts | 52° |
| 2026-05-09 11:45 | 46.22996 | -63.63603 | 36996 ft | 527 kts | 52° |
| 2026-05-09 11:45 | 46.27327 | -63.55058 | 36995 ft | 527 kts | 52° |
| 2026-05-09 11:46 | 46.31625 | -63.46549 | 36981 ft | 527 kts | 53° |
| 2026-05-09 11:46 | 46.35946 | -63.37969 | 36991 ft | 528 kts | 53° |
| 2026-05-09 11:47 | 46.40273 | -63.29351 | 36989 ft | 528 kts | 53° |
| 2026-05-09 11:47 | 46.44592 | -63.20724 | 36988 ft | 528 kts | 53° |
| 2026-05-09 11:48 | 46.48872 | -63.12147 | 36990 ft | 528 kts | 53° |
| 2026-05-09 11:48 | 46.53176 | -63.03496 | 36993 ft | 528 kts | 53° |
| 2026-05-09 11:49 | 46.57470 | -62.94837 | 36992 ft | 528 kts | 53° |
| 2026-05-09 11:49 | 46.61751 | -62.86179 | 36993 ft | 528 kts | 54° |
| 2026-05-09 11:50 | 46.66039 | -62.77479 | 36998 ft | 528 kts | 54° |
| 2026-05-09 11:50 | 46.70307 | -62.68793 | 37002 ft | 527 kts | 54° |
| 2026-05-09 11:51 | 46.74568 | -62.60093 | 36998 ft | 527 kts | 54° |
| 2026-05-09 11:51 | 46.78827 | -62.51371 | 36997 ft | 527 kts | 54° |
| 2026-05-09 11:52 | 46.83054 | -62.42686 | 37005 ft | 528 kts | 54° |
| 2026-05-09 11:52 | 46.87304 | -62.33928 | 37004 ft | 528 kts | 54° |
| 2026-05-09 11:53 | 46.91530 | -62.25189 | 37011 ft | 528 kts | 55° |
| 2026-05-09 11:53 | 46.95768 | -62.16401 | 37019 ft | 528 kts | 55° |
| 2026-05-09 11:54 | 46.99998 | -62.07600 | 37018 ft | 528 kts | 55° |
| 2026-05-09 11:54 | 47.04225 | -61.98763 | 37018 ft | 529 kts | 55° |
| 2026-05-09 11:55 | 47.08441 | -61.89924 | 37004 ft | 529 kts | 55° |
| 2026-05-09 11:56 | 47.21046 | -61.63372 | 36973 ft | 529 kts | 56° |
| 2026-05-09 11:57 | 47.25240 | -61.54479 | 36973 ft | 529 kts | 56° |
| 2026-05-09 11:57 | 47.29431 | -61.45551 | 36974 ft | 530 kts | 56° |
| 2026-05-09 11:58 | 47.33624 | -61.36599 | 36975 ft | 530 kts | 56° |
| 2026-05-09 11:58 | 47.37807 | -61.27651 | 36979 ft | 530 kts | 56° |
| 2026-05-09 11:59 | 47.41984 | -61.18672 | 36991 ft | 530 kts | 56° |
| 2026-05-09 11:59 | 47.46159 | -61.09681 | 36990 ft | 530 kts | 56° |
| 2026-05-09 12:00 | 47.50324 | -61.00681 | 36992 ft | 530 kts | 56° |
| 2026-05-09 12:00 | 47.54479 | -60.91667 | 36995 ft | 530 kts | 57° |
| 2026-05-09 12:01 | 47.58600 | -60.82697 | 36992 ft | 530 kts | 57° |
| 2026-05-09 12:01 | 47.62763 | -60.73605 | 36985 ft | 530 kts | 57° |
| 2026-05-09 12:02 | 47.66871 | -60.64604 | 36982 ft | 530 kts | 57° |
| 2026-05-09 12:02 | 47.70997 | -60.55531 | 36982 ft | 531 kts | 57° |
| 2026-05-09 12:03 | 47.75126 | -60.46424 | 36980 ft | 531 kts | 57° |
| 2026-05-09 12:03 | 47.79244 | -60.37308 | 36978 ft | 531 kts | 57° |
| 2026-05-09 12:04 | 47.83364 | -60.28160 | 36977 ft | 531 kts | 58° |
| 2026-05-09 12:04 | 47.87474 | -60.19004 | 36976 ft | 531 kts | 58° |
| 2026-05-09 12:05 | 47.91575 | -60.09834 | 36975 ft | 531 kts | 58° |
| 2026-05-09 12:05 | 47.95668 | -60.00654 | 36968 ft | 532 kts | 58° |
| 2026-05-09 12:06 | 47.99728 | -59.91516 | 36968 ft | 532 kts | 58° |
| 2026-05-09 12:06 | 48.03812 | -59.82287 | 36969 ft | 532 kts | 58° |
| 2026-05-09 12:07 | 48.07890 | -59.73027 | 36966 ft | 532 kts | 58° |
| 2026-05-09 12:07 | 48.11948 | -59.63790 | 36966 ft | 532 kts | 58° |
| 2026-05-09 12:08 | 48.15323 | -59.56091 | 36964 ft | 533 kts | 59° |
| 2026-05-09 12:08 | 48.19396 | -59.46771 | 36964 ft | 534 kts | 59° |
| 2026-05-09 12:09 | 48.23456 | -59.37449 | 36965 ft | 534 kts | 59° |
| 2026-05-09 12:09 | 48.27510 | -59.28110 | 36960 ft | 534 kts | 59° |
| 2026-05-09 12:10 | 48.35580 | -59.09421 | 36958 ft | 534 kts | 60° |
| 2026-05-09 12:11 | 48.39611 | -59.00036 | 36958 ft | 534 kts | 60° |
| 2026-05-09 12:11 | 48.43636 | -58.90635 | 36950 ft | 534 kts | 60° |
| 2026-05-09 12:12 | 48.47657 | -58.81207 | 36955 ft | 534 kts | 60° |
| 2026-05-09 12:12 | 48.51664 | -58.71782 | 36953 ft | 534 kts | 60° |
| 2026-05-09 12:13 | 48.55667 | -58.62332 | 36950 ft | 534 kts | 60° |
| 2026-05-09 12:13 | 48.59664 | -58.52864 | 36949 ft | 535 kts | 61° |
| 2026-05-09 12:14 | 48.63565 | -58.43590 | 36943 ft | 536 kts | 61° |
| 2026-05-09 12:14 | 48.67576 | -58.34021 | 36937 ft | 536 kts | 61° |
| 2026-05-09 12:15 | 48.71575 | -58.24447 | 36922 ft | 536 kts | 62° |
| 2026-05-09 12:15 | 48.75495 | -58.15028 | 36928 ft | 535 kts | 62° |
| 2026-05-09 12:16 | 48.79532 | -58.05305 | 36921 ft | 535 kts | 62° |
| 2026-05-09 12:16 | 48.83474 | -57.95785 | 36916 ft | 535 kts | 62° |
| 2026-05-09 12:17 | 48.87415 | -57.86220 | 36915 ft | 535 kts | 62° |
| 2026-05-09 12:17 | 48.91392 | -57.76529 | 36905 ft | 535 kts | 62° |
| 2026-05-09 12:18 | 48.95299 | -57.66965 | 36912 ft | 535 kts | 62° |
| 2026-05-09 12:18 | 48.99206 | -57.57369 | 36910 ft | 535 kts | 62° |
| 2026-05-09 12:19 | 49.03136 | -57.47693 | 36887 ft | 535 kts | 62° |
| 2026-05-09 12:19 | 49.07048 | -57.38021 | 36908 ft | 535 kts | 63° |
| 2026-05-09 12:20 | 49.10948 | -57.28340 | 36911 ft | 536 kts | 63° |
| 2026-05-09 12:20 | 49.14819 | -57.18698 | 36889 ft | 536 kts | 63° |
| 2026-05-09 12:21 | 49.18731 | -57.08920 | 36881 ft | 535 kts | 63° |
| 2026-05-09 12:21 | 49.22613 | -56.99176 | 36878 ft | 535 kts | 63° |
| 2026-05-09 12:22 | 49.26425 | -56.89556 | 36880 ft | 535 kts | 63° |
| 2026-05-09 12:22 | 49.30306 | -56.79749 | 36889 ft | 535 kts | 64° |
| 2026-05-09 12:23 | 49.34181 | -56.69912 | 36892 ft | 535 kts | 64° |
| 2026-05-09 12:23 | 49.37993 | -56.60189 | 36878 ft | 535 kts | 64° |
| 2026-05-09 12:24 | 49.41829 | -56.50378 | 36882 ft | 535 kts | 64° |
| 2026-05-09 12:24 | 49.45659 | -56.40555 | 36882 ft | 535 kts | 64° |
| 2026-05-09 12:25 | 49.49481 | -56.30725 | 36888 ft | 535 kts | 64° |
| 2026-05-09 12:25 | 49.53295 | -56.20879 | 36886 ft | 535 kts | 64° |
| 2026-05-09 12:26 | 49.57092 | -56.11028 | 36878 ft | 535 kts | 65° |
| 2026-05-09 12:26 | 49.60889 | -56.01139 | 36886 ft | 535 kts | 65° |
| 2026-05-09 12:27 | 49.64671 | -55.91252 | 36890 ft | 535 kts | 65° |
| 2026-05-09 12:27 | 49.68450 | -55.81333 | 36889 ft | 535 kts | 65° |
| 2026-05-09 12:28 | 49.72190 | -55.71480 | 36885 ft | 535 kts | 65° |
| 2026-05-09 12:28 | 49.75946 | -55.61554 | 36889 ft | 535 kts | 66° |
| 2026-05-09 12:29 | 49.79685 | -55.51635 | 36888 ft | 535 kts | 66° |
| 2026-05-09 12:29 | 49.83449 | -55.41605 | 36889 ft | 535 kts | 66° |
| 2026-05-09 12:30 | 49.87153 | -55.31712 | 36868 ft | 521 kts | 66° |
| 2026-05-09 12:30 | 49.92510 | -55.17311 | 36882 ft | 512 kts | 68° |
| 2026-05-09 12:31 | 49.97829 | -55.02889 | 36878 ft | 513 kts | 68° |
| 2026-05-09 12:32 | 50.01357 | -54.93308 | 36847 ft | 513 kts | 68° |
| 2026-05-09 12:32 | 50.04901 | -54.83653 | 36870 ft | 513 kts | 68° |
| 2026-05-09 12:33 | 50.08408 | -54.74063 | 36869 ft | 513 kts | 68° |
| 2026-05-09 12:33 | 50.11954 | -54.64330 | 36862 ft | 513 kts | 68° |
| 2026-05-09 12:34 | 50.15465 | -54.54654 | 36824 ft | 513 kts | 69° |
| 2026-05-09 12:34 | 50.18971 | -54.44955 | 36855 ft | 513 kts | 69° |
| 2026-05-09 12:35 | 50.22433 | -54.35343 | 36846 ft | 513 kts | 69° |
| 2026-05-09 12:35 | 50.25927 | -54.25605 | 36841 ft | 513 kts | 69° |
| 2026-05-09 12:36 | 50.29408 | -54.15868 | 36832 ft | 512 kts | 69° |
| 2026-05-09 12:36 | 50.32877 | -54.06125 | 36781 ft | 512 kts | 70° |
| 2026-05-09 12:37 | 50.36348 | -53.96336 | 36815 ft | 513 kts | 70° |
| 2026-05-09 12:37 | 50.39768 | -53.86660 | 36826 ft | 513 kts | 70° |
| 2026-05-09 12:38 | 50.43244 | -53.76792 | 36775 ft | 513 kts | 71° |
| 2026-05-09 12:38 | 50.46685 | -53.66979 | 36808 ft | 513 kts | 71° |
| 2026-05-09 12:39 | 50.50119 | -53.57148 | 36794 ft | 513 kts | 71° |
| 2026-05-09 12:39 | 50.53548 | -53.47293 | 36799 ft | 513 kts | 71° |
| 2026-05-09 12:40 | 50.56901 | -53.37623 | 36753 ft | 513 kts | 71° |
| 2026-05-09 12:40 | 50.60313 | -53.27742 | 36770 ft | 513 kts | 72° |
| 2026-05-09 12:41 | 50.63730 | -53.17803 | 36771 ft | 514 kts | 72° |
| 2026-05-09 12:41 | 50.67165 | -53.07780 | 36760 ft | 514 kts | 72° |
| 2026-05-09 12:42 | 50.70556 | -52.97846 | 36764 ft | 514 kts | 72° |
| 2026-05-09 12:42 | 50.73918 | -52.87950 | 36753 ft | 514 kts | 72° |
| 2026-05-09 12:43 | 50.77293 | -52.77979 | 36740 ft | 515 kts | 72° |
| 2026-05-09 12:43 | 50.80663 | -52.67990 | 36732 ft | 515 kts | 72° |
| 2026-05-09 12:44 | 50.84013 | -52.58005 | 36732 ft | 514 kts | 74° |
| 2026-05-09 12:44 | 50.86906 | -52.47759 | 36722 ft | 506 kts | 79° |
| 2026-05-09 12:45 | 50.89536 | -52.37436 | 36726 ft | 506 kts | 79° |
| 2026-05-09 12:45 | 50.92193 | -52.27197 | 36718 ft | 507 kts | 78° |
| 2026-05-09 12:46 | 50.94934 | -52.16855 | 36722 ft | 507 kts | 78° |
| 2026-05-09 12:46 | 50.97684 | -52.06526 | 36705 ft | 508 kts | 78° |
| 2026-05-09 12:47 | 51.00434 | -51.96125 | 36718 ft | 514 kts | 78° |
| 2026-05-09 12:47 | 51.03199 | -51.85630 | 36720 ft | 514 kts | 78° |
| 2026-05-09 12:48 | 51.05951 | -51.75148 | 36701 ft | 514 kts | 77° |
| 2026-05-09 12:48 | 51.08692 | -51.64639 | 36689 ft | 514 kts | 77° |
| 2026-05-09 12:49 | 51.11426 | -51.54118 | 36720 ft | 514 kts | 77° |
| 2026-05-09 12:49 | 51.14145 | -51.43604 | 36719 ft | 514 kts | 77° |
| 2026-05-09 12:50 | 51.16396 | -51.34856 | 36716 ft | 513 kts | 77° |
| 2026-05-09 12:50 | 51.19537 | -51.22597 | 36716 ft | 513 kts | 78° |
| 2026-05-09 12:51 | 51.22222 | -51.12066 | 36719 ft | 512 kts | 78° |
| 2026-05-09 12:51 | 51.24458 | -51.03261 | 36724 ft | 510 kts | 78° |
| 2026-05-09 12:52 | 51.27096 | -50.92821 | 36721 ft | 510 kts | 78° |
| 2026-05-09 12:52 | 51.29744 | -50.82287 | 36718 ft | 510 kts | 78° |
| 2026-05-09 12:53 | 51.32380 | -50.71755 | 36677 ft | 509 kts | 78° |
| 2026-05-09 12:53 | 51.34991 | -50.61266 | 36730 ft | 511 kts | 78° |
| 2026-05-09 12:54 | 51.37618 | -50.50676 | 36727 ft | 511 kts | 78° |
| 2026-05-09 12:54 | 51.40231 | -50.40098 | 36730 ft | 511 kts | 78° |
| 2026-05-09 12:55 | 51.42832 | -50.29507 | 36738 ft | 510 kts | 78° |
| 2026-05-09 12:55 | 51.45423 | -50.18907 | 36740 ft | 511 kts | 78° |
| 2026-05-09 12:56 | 51.47989 | -50.08356 | 36746 ft | 511 kts | 78° |
| 2026-05-09 12:56 | 51.50565 | -49.97733 | 36746 ft | 511 kts | 78° |
| 2026-05-09 12:57 | 51.53218 | -49.87133 | 36753 ft | 512 kts | 77° |
| 2026-05-09 12:57 | 51.55905 | -49.76525 | 36752 ft | 512 kts | 77° |
| 2026-05-09 12:58 | 51.58567 | -49.65922 | 36725 ft | 511 kts | 77° |
| 2026-05-09 12:58 | 51.61193 | -49.55373 | 36758 ft | 510 kts | 77° |
| 2026-05-09 12:59 | 51.63814 | -49.44775 | 36758 ft | 509 kts | 77° |
| 2026-05-09 12:59 | 51.66424 | -49.34166 | 36753 ft | 509 kts | 77° |
| 2026-05-09 13:00 | 51.69031 | -49.23508 | 36771 ft | 513 kts | 77° |
| 2026-05-09 13:00 | 51.71642 | -49.12793 | 36777 ft | 514 kts | 77° |
| 2026-05-09 13:01 | 51.74251 | -49.02049 | 36777 ft | 514 kts | 78° |
| 2026-05-09 13:01 | 51.76829 | -48.91377 | 36788 ft | 513 kts | 78° |
| 2026-05-09 13:02 | 51.79411 | -48.80632 | 36783 ft | 513 kts | 77° |
| 2026-05-09 13:02 | 51.81978 | -48.69893 | 36792 ft | 512 kts | 78° |
| 2026-05-09 13:03 | 51.84531 | -48.59157 | 36800 ft | 511 kts | 78° |
| 2026-05-09 13:03 | 51.87077 | -48.48401 | 36789 ft | 511 kts | 77° |
| 2026-05-09 13:04 | 51.89605 | -48.37678 | 36800 ft | 509 kts | 77° |
| 2026-05-09 13:04 | 51.92094 | -48.27076 | 36816 ft | 505 kts | 77° |
| 2026-05-09 13:05 | 51.94580 | -48.16404 | 36820 ft | 505 kts | 77° |
| 2026-05-09 13:05 | 51.97047 | -48.05750 | 36827 ft | 505 kts | 77° |
| 2026-05-09 13:06 | 51.99511 | -47.95067 | 36835 ft | 505 kts | 78° |
| 2026-05-09 13:06 | 52.01959 | -47.84413 | 36841 ft | 503 kts | 77° |
| 2026-05-09 13:07 | 52.04379 | -47.73858 | 36845 ft | 502 kts | 77° |
| 2026-05-09 13:07 | 52.06803 | -47.63220 | 36850 ft | 501 kts | 78° |
| 2026-05-09 13:08 | 52.09211 | -47.52562 | 36858 ft | 501 kts | 78° |
| 2026-05-09 13:08 | 52.11609 | -47.41908 | 36860 ft | 501 kts | 77° |
| 2026-05-09 13:09 | 52.13996 | -47.31271 | 36867 ft | 500 kts | 77° |
| 2026-05-09 13:09 | 52.16366 | -47.20640 | 36874 ft | 499 kts | 77° |
| 2026-05-09 13:10 | 52.18707 | -47.10074 | 36887 ft | 499 kts | 77° |
| 2026-05-09 13:10 | 52.21051 | -46.99446 | 36894 ft | 499 kts | 77° |
| 2026-05-09 13:11 | 52.23392 | -46.88776 | 36893 ft | 499 kts | 77° |
| 2026-05-09 13:11 | 52.25723 | -46.78097 | 36899 ft | 499 kts | 77° |
| 2026-05-09 13:12 | 52.28045 | -46.67406 | 36922 ft | 499 kts | 77° |
| 2026-05-09 13:12 | 52.30358 | -46.56704 | 36922 ft | 499 kts | 78° |
| 2026-05-09 13:13 | 52.32661 | -46.45988 | 36914 ft | 499 kts | 77° |
| 2026-05-09 13:13 | 52.34953 | -46.35262 | 36930 ft | 500 kts | 77° |
| 2026-05-09 13:14 | 52.37241 | -46.24504 | 36938 ft | 500 kts | 78° |
| 2026-05-09 13:16 | 52.46243 | -45.81549 | 36970 ft | 499 kts | 77° |
| 2026-05-09 13:16 | 52.48479 | -45.70751 | 36966 ft | 499 kts | 77° |
| 2026-05-09 13:17 | 52.50702 | -45.59959 | 36978 ft | 499 kts | 77° |
| 2026-05-09 13:17 | 52.52911 | -45.49171 | 36947 ft | 498 kts | 77° |
| 2026-05-09 13:18 | 52.55113 | -45.38356 | 36981 ft | 500 kts | 77° |
| 2026-05-09 13:18 | 52.57309 | -45.27515 | 36995 ft | 500 kts | 77° |
| 2026-05-09 13:19 | 52.58617 | -45.21030 | 37010 ft | 500 kts | 77° |
| 2026-05-09 13:19 | 52.60775 | -45.10288 | 37009 ft | 500 kts | 77° |
| 2026-05-09 13:20 | 52.62946 | -44.99417 | 37018 ft | 499 kts | 78° |
| 2026-05-09 13:20 | 52.65107 | -44.88533 | 37032 ft | 499 kts | 78° |
| 2026-05-09 13:21 | 52.67272 | -44.77571 | 37031 ft | 499 kts | 78° |
| 2026-05-09 13:21 | 52.69412 | -44.66671 | 37039 ft | 499 kts | 78° |
| 2026-05-09 13:22 | 52.71544 | -44.55753 | 37040 ft | 499 kts | 78° |
| 2026-05-09 13:22 | 52.73656 | -44.44876 | 37046 ft | 499 kts | 77° |
| 2026-05-09 13:23 | 52.78888 | -44.17654 | 37072 ft | 499 kts | 78° |
| 2026-05-09 13:24 | 52.80976 | -44.06681 | 37084 ft | 498 kts | 78° |
| 2026-05-09 13:24 | 52.83048 | -43.95729 | 37071 ft | 498 kts | 77° |
| 2026-05-09 13:25 | 52.85098 | -43.84828 | 37092 ft | 498 kts | 77° |
| 2026-05-09 13:26 | 52.88180 | -43.68328 | 37106 ft | 497 kts | 77° |
| 2026-05-09 13:26 | 52.90207 | -43.57435 | 37119 ft | 497 kts | 77° |
| 2026-05-09 13:27 | 52.92230 | -43.46480 | 37114 ft | 497 kts | 77° |
| 2026-05-09 13:27 | 52.94226 | -43.35591 | 37128 ft | 497 kts | 77° |
| 2026-05-09 13:28 | 52.96219 | -43.24643 | 37152 ft | 497 kts | 77° |
| 2026-05-09 13:28 | 52.98212 | -43.13632 | 37151 ft | 497 kts | 77° |
| 2026-05-09 13:29 | 53.00197 | -43.02597 | 37161 ft | 497 kts | 77° |
| 2026-05-09 13:29 | 53.02151 | -42.91672 | 37157 ft | 497 kts | 77° |
| 2026-05-09 13:30 | 53.04118 | -42.80600 | 37185 ft | 498 kts | 77° |
| 2026-05-09 13:30 | 53.06067 | -42.69565 | 37186 ft | 498 kts | 78° |
| 2026-05-09 13:31 | 53.08013 | -42.58481 | 37191 ft | 498 kts | 78° |
| 2026-05-09 13:31 | 53.09925 | -42.47518 | 37191 ft | 498 kts | 78° |
| 2026-05-09 13:32 | 53.11846 | -42.36434 | 37200 ft | 497 kts | 77° |
| 2026-05-09 13:32 | 53.14698 | -42.19807 | 37222 ft | 498 kts | 78° |
| 2026-05-09 13:33 | 53.16587 | -42.08727 | 37222 ft | 497 kts | 78° |
| 2026-05-09 13:33 | 53.18484 | -41.97548 | 37233 ft | 497 kts | 78° |
| 2026-05-09 13:34 | 53.20350 | -41.86475 | 37231 ft | 497 kts | 78° |
| 2026-05-09 13:34 | 53.22216 | -41.75332 | 37257 ft | 496 kts | 78° |
| 2026-05-09 13:35 | 53.24062 | -41.64239 | 37255 ft | 496 kts | 78° |
| 2026-05-09 13:35 | 53.25889 | -41.53189 | 37265 ft | 496 kts | 78° |
| 2026-05-09 13:36 | 53.27717 | -41.42055 | 37266 ft | 496 kts | 78° |
| 2026-05-09 13:36 | 53.29533 | -41.30929 | 37280 ft | 495 kts | 78° |
| 2026-05-09 13:37 | 53.31031 | -41.21697 | 37289 ft | 494 kts | 78° |
| 2026-05-09 13:37 | 53.32814 | -41.10641 | 37295 ft | 494 kts | 78° |
| 2026-05-09 13:38 | 53.34585 | -40.99580 | 37295 ft | 494 kts | 78° |
| 2026-05-09 13:38 | 53.36352 | -40.88475 | 37309 ft | 494 kts | 78° |
| 2026-05-09 13:39 | 53.38105 | -40.77385 | 37318 ft | 494 kts | 78° |
| 2026-05-09 13:39 | 53.39856 | -40.66229 | 37328 ft | 494 kts | 78° |
| 2026-05-09 13:40 | 53.41596 | -40.55072 | 37335 ft | 494 kts | 78° |
| 2026-05-09 13:40 | 53.43312 | -40.43995 | 37335 ft | 494 kts | 78° |
| 2026-05-09 13:41 | 53.45028 | -40.32837 | 37338 ft | 493 kts | 78° |
| 2026-05-09 13:41 | 53.46741 | -40.21626 | 37357 ft | 493 kts | 78° |
| 2026-05-09 13:42 | 53.48431 | -40.10488 | 37369 ft | 493 kts | 78° |
| 2026-05-09 13:42 | 53.50112 | -39.99331 | 37364 ft | 493 kts | 78° |
| 2026-05-09 13:43 | 53.51748 | -39.88169 | 37367 ft | 491 kts | 78° |
| 2026-05-09 13:43 | 53.53320 | -39.77062 | 37376 ft | 491 kts | 79° |
| 2026-05-09 13:44 | 53.54896 | -39.65890 | 37389 ft | 491 kts | 78° |
| 2026-05-09 13:44 | 53.56471 | -39.54707 | 37385 ft | 491 kts | 79° |
| 2026-05-09 13:45 | 53.58038 | -39.43526 | 37385 ft | 491 kts | 79° |
| 2026-05-09 13:45 | 53.59589 | -39.32369 | 37385 ft | 491 kts | 79° |
| 2026-05-09 13:46 | 53.61143 | -39.21115 | 37400 ft | 490 kts | 79° |
| 2026-05-09 13:46 | 53.62678 | -39.09903 | 37399 ft | 490 kts | 79° |
| 2026-05-09 13:47 | 53.64187 | -38.98794 | 37414 ft | 490 kts | 79° |
| 2026-05-09 13:47 | 53.65702 | -38.87560 | 37414 ft | 490 kts | 79° |
| 2026-05-09 13:48 | 53.67203 | -38.76355 | 37416 ft | 490 kts | 79° |
| 2026-05-09 13:48 | 53.68695 | -38.65116 | 37431 ft | 489 kts | 79° |
| 2026-05-09 13:49 | 53.70160 | -38.54001 | 37446 ft | 489 kts | 79° |
| 2026-05-09 13:49 | 53.71626 | -38.42796 | 37441 ft | 489 kts | 78° |
| 2026-05-09 13:50 | 53.73078 | -38.31594 | 37443 ft | 489 kts | 78° |
| 2026-05-09 13:50 | 53.74516 | -38.20430 | 37456 ft | 489 kts | 79° |
| 2026-05-09 13:51 | 53.75961 | -38.09126 | 37466 ft | 489 kts | 79° |
| 2026-05-09 13:51 | 53.77389 | -37.97854 | 37451 ft | 488 kts | 79° |
| 2026-05-09 13:52 | 53.78779 | -37.86779 | 37467 ft | 488 kts | 79° |
| 2026-05-09 13:52 | 53.80189 | -37.75540 | 37461 ft | 488 kts | 79° |
| 2026-05-09 13:53 | 53.81581 | -37.64365 | 37487 ft | 487 kts | 79° |
| 2026-05-09 13:53 | 53.82960 | -37.53126 | 37482 ft | 487 kts | 79° |
| 2026-05-09 13:54 | 53.84322 | -37.41925 | 37494 ft | 486 kts | 78° |
| 2026-05-09 13:54 | 53.85674 | -37.30730 | 37483 ft | 484 kts | 78° |
| 2026-05-09 13:55 | 53.87011 | -37.19547 | 37508 ft | 483 kts | 78° |
| 2026-05-09 13:55 | 53.88330 | -37.08406 | 37514 ft | 484 kts | 78° |
| 2026-05-09 13:56 | 53.89647 | -36.97193 | 37517 ft | 484 kts | 78° |
| 2026-05-09 13:56 | 53.90955 | -36.85983 | 37520 ft | 483 kts | 78° |
| 2026-05-09 13:57 | 53.92247 | -36.74806 | 37524 ft | 483 kts | 78° |
| 2026-05-09 13:57 | 53.93523 | -36.63665 | 37536 ft | 484 kts | 78° |
| 2026-05-09 13:58 | 53.94802 | -36.52415 | 37542 ft | 484 kts | 78° |
| 2026-05-09 13:58 | 53.96080 | -36.41046 | 37543 ft | 483 kts | 78° |
| 2026-05-09 13:59 | 53.97316 | -36.29971 | 37541 ft | 482 kts | 78° |
| 2026-05-09 13:59 | 53.98553 | -36.18791 | 37545 ft | 482 kts | 78° |
| 2026-05-09 14:00 | 53.99384 | -36.11235 | 37553 ft | 481 kts | 77° |
| 2026-05-09 14:00 | 54.00984 | -35.96523 | 37568 ft | 479 kts | 78° |
| 2026-05-09 14:01 | 54.02189 | -35.85308 | 37561 ft | 477 kts | 78° |
| 2026-05-09 14:01 | 54.03374 | -35.74206 | 37560 ft | 477 kts | 78° |
| 2026-05-09 14:02 | 54.04544 | -35.63099 | 37564 ft | 477 kts | 78° |
| 2026-05-09 14:02 | 54.05701 | -35.51974 | 37577 ft | 477 kts | 78° |
| 2026-05-09 14:03 | 54.06858 | -35.40846 | 37578 ft | 477 kts | 78° |
| 2026-05-09 14:03 | 54.07994 | -35.29832 | 37570 ft | 475 kts | 78° |
| 2026-05-09 14:04 | 54.09130 | -35.18623 | 37573 ft | 475 kts | 79° |
| 2026-05-09 14:04 | 54.10232 | -35.07619 | 37590 ft | 475 kts | 78° |
| 2026-05-09 14:05 | 54.11337 | -34.96526 | 37586 ft | 475 kts | 78° |
| 2026-05-09 14:05 | 54.12434 | -34.85422 | 37607 ft | 475 kts | 78° |
| 2026-05-09 14:06 | 54.13506 | -34.74450 | 37590 ft | 467 kts | 78° |
| 2026-05-09 14:06 | 54.14565 | -34.63506 | 37590 ft | 465 kts | 78° |
| 2026-05-09 14:07 | 54.15611 | -34.52623 | 37585 ft | 465 kts | 78° |
| 2026-05-09 14:07 | 54.16645 | -34.41744 | 37604 ft | 466 kts | 78° |
| 2026-05-09 14:08 | 54.17676 | -34.30787 | 37607 ft | 466 kts | 78° |
| 2026-05-09 14:08 | 54.18690 | -34.19895 | 37603 ft | 466 kts | 78° |
| 2026-05-09 14:09 | 54.19700 | -34.08930 | 37611 ft | 466 kts | 78° |
| 2026-05-09 14:09 | 54.20692 | -33.98050 | 37615 ft | 465 kts | 78° |
| 2026-05-09 14:10 | 54.22162 | -33.81721 | 37597 ft | 466 kts | 79° |
| 2026-05-09 14:11 | 54.23141 | -33.70697 | 37604 ft | 466 kts | 78° |
| 2026-05-09 14:11 | 54.24101 | -33.59773 | 37605 ft | 464 kts | 78° |
| 2026-05-09 14:12 | 54.25046 | -33.48900 | 37618 ft | 462 kts | 78° |
| 2026-05-09 14:12 | 54.25974 | -33.38097 | 37622 ft | 458 kts | 78° |
| 2026-05-09 14:13 | 54.26895 | -33.27276 | 37623 ft | 458 kts | 78° |
| 2026-05-09 14:15 | 54.30464 | -32.84151 | 37626 ft | 458 kts | 78° |
| 2026-05-09 14:15 | 54.31333 | -32.73346 | 37634 ft | 458 kts | 78° |
| 2026-05-09 14:16 | 54.32192 | -32.62539 | 37632 ft | 458 kts | 78° |
| 2026-05-09 14:16 | 54.33042 | -32.51728 | 37638 ft | 457 kts | 78° |
| 2026-05-09 14:17 | 54.33875 | -32.40989 | 37638 ft | 457 kts | 78° |
| 2026-05-09 14:17 | 54.34700 | -32.30243 | 37643 ft | 457 kts | 78° |
| 2026-05-09 14:18 | 54.35523 | -32.19380 | 37640 ft | 457 kts | 78° |
| 2026-05-09 14:18 | 54.36326 | -32.08667 | 37645 ft | 457 kts | 79° |
| 2026-05-09 14:19 | 54.37134 | -31.97734 | 37651 ft | 457 kts | 78° |
| 2026-05-09 14:19 | 54.37923 | -31.86938 | 37647 ft | 456 kts | 78° |
| 2026-05-09 14:20 | 54.38701 | -31.76138 | 37647 ft | 456 kts | 78° |
| 2026-05-09 14:20 | 54.39470 | -31.65343 | 37649 ft | 456 kts | 78° |
| 2026-05-09 14:21 | 54.40594 | -31.49297 | 37647 ft | 456 kts | 79° |
| 2026-05-09 14:21 | 54.41344 | -31.38417 | 37656 ft | 455 kts | 78° |
| 2026-05-09 14:22 | 54.42077 | -31.27626 | 37654 ft | 454 kts | 78° |
| 2026-05-09 14:22 | 54.42801 | -31.16835 | 37655 ft | 454 kts | 78° |
| 2026-05-09 14:23 | 54.43395 | -31.07868 | 37657 ft | 454 kts | 79° |
| 2026-05-09 14:23 | 54.44217 | -30.95309 | 37658 ft | 454 kts | 78° |
| 2026-05-09 14:24 | 54.44798 | -30.86373 | 37691 ft | 454 kts | 78° |
| 2026-05-09 14:24 | 54.45484 | -30.75632 | 37662 ft | 450 kts | 78° |
| 2026-05-09 14:25 | 54.46158 | -30.64898 | 37658 ft | 450 kts | 78° |
| 2026-05-09 14:25 | 54.46821 | -30.54188 | 37657 ft | 450 kts | 78° |
| 2026-05-09 14:26 | 54.47470 | -30.43540 | 37653 ft | 450 kts | 78° |
| 2026-05-09 14:26 | 54.48113 | -30.32818 | 37664 ft | 450 kts | 78° |
| 2026-05-09 14:27 | 54.48743 | -30.22141 | 37663 ft | 450 kts | 78° |
| 2026-05-09 14:27 | 54.49362 | -30.11449 | 37661 ft | 450 kts | 78° |
| 2026-05-09 14:28 | 54.49970 | -30.00815 | 37665 ft | 450 kts | 78° |
| 2026-05-09 14:28 | 54.50500 | -29.90002 | 37663 ft | 451 kts | 80° |
| 2026-05-09 14:29 | 54.50893 | -29.79292 | 37665 ft | 451 kts | 80° |
| 2026-05-09 14:29 | 54.51287 | -29.68501 | 37680 ft | 451 kts | 80° |
| 2026-05-09 14:30 | 54.51692 | -29.57696 | 37667 ft | 450 kts | 80° |
| 2026-05-09 14:30 | 54.52092 | -29.47011 | 37665 ft | 448 kts | 79° |
| 2026-05-09 14:31 | 54.52484 | -29.36278 | 37665 ft | 447 kts | 79° |
| 2026-05-09 14:31 | 54.52866 | -29.25584 | 37665 ft | 447 kts | 79° |
| 2026-05-09 14:32 | 54.53238 | -29.14879 | 37669 ft | 447 kts | 80° |
| 2026-05-09 14:32 | 54.53594 | -29.04195 | 37667 ft | 446 kts | 79° |
| 2026-05-09 14:33 | 54.53947 | -28.93526 | 37669 ft | 445 kts | 79° |
| 2026-05-09 14:33 | 54.54290 | -28.82939 | 37670 ft | 445 kts | 79° |
| 2026-05-09 14:34 | 54.54622 | -28.72291 | 37670 ft | 446 kts | 80° |
| 2026-05-09 14:34 | 54.54939 | -28.61621 | 37670 ft | 446 kts | 80° |
| 2026-05-09 14:35 | 54.55250 | -28.50930 | 37669 ft | 446 kts | 80° |
| 2026-05-09 14:35 | 54.55553 | -28.40261 | 37669 ft | 446 kts | 80° |
| 2026-05-09 14:36 | 54.55848 | -28.29593 | 37692 ft | 446 kts | 80° |
| 2026-05-09 14:36 | 54.56129 | -28.19011 | 37669 ft | 442 kts | 80° |
| 2026-05-09 14:37 | 54.56406 | -28.08435 | 37671 ft | 441 kts | 80° |
| 2026-05-09 14:37 | 54.56678 | -27.97872 | 37668 ft | 441 kts | 80° |
| 2026-05-09 14:38 | 54.56937 | -27.87297 | 37669 ft | 440 kts | 80° |
| 2026-05-09 14:38 | 54.57182 | -27.76759 | 37669 ft | 440 kts | 80° |
| 2026-05-09 14:39 | 54.57417 | -27.66226 | 37671 ft | 440 kts | 80° |
| 2026-05-09 14:39 | 54.57645 | -27.55683 | 37671 ft | 440 kts | 80° |
| 2026-05-09 14:40 | 54.57863 | -27.45141 | 37672 ft | 440 kts | 80° |
| 2026-05-09 14:40 | 54.58071 | -27.34657 | 37664 ft | 440 kts | 81° |
| 2026-05-09 14:41 | 54.58265 | -27.24111 | 37663 ft | 440 kts | 80° |
| 2026-05-09 14:41 | 54.58449 | -27.13561 | 37670 ft | 439 kts | 80° |
| 2026-05-09 14:42 | 54.58628 | -27.03025 | 37696 ft | 440 kts | 80° |
| 2026-05-09 14:42 | 54.58799 | -26.92498 | 37763 ft | 438 kts | 80° |
| 2026-05-09 14:43 | 54.58881 | -26.87321 | 37953 ft | 438 kts | 80° |
| 2026-05-09 14:43 | 54.58961 | -26.82071 | 38173 ft | 437 kts | 80° |
| 2026-05-09 14:43 | 54.59035 | -26.76871 | 38635 ft | 430 kts | 80° |
| 2026-05-09 14:43 | 54.59104 | -26.71713 | 38855 ft | 431 kts | 80° |
| 2026-05-09 14:44 | 54.59177 | -26.66531 | 38967 ft | 432 kts | 80° |
| 2026-05-09 14:44 | 54.59249 | -26.61346 | 39134 ft | 432 kts | 80° |
| 2026-05-09 14:44 | 54.59319 | -26.56174 | 39325 ft | 431 kts | 80° |
| 2026-05-09 14:44 | 54.59386 | -26.51013 | 39471 ft | 430 kts | 80° |
| 2026-05-09 14:45 | 54.59452 | -26.45865 | 39572 ft | 431 kts | 80° |
| 2026-05-09 14:45 | 54.59518 | -26.40666 | 39646 ft | 433 kts | 80° |
| 2026-05-09 14:45 | 54.59638 | -26.30278 | 39664 ft | 431 kts | 80° |
| 2026-05-09 14:46 | 54.59739 | -26.20039 | 39662 ft | 429 kts | 80° |
| 2026-05-09 14:46 | 54.59837 | -26.09752 | 39662 ft | 429 kts | 80° |
| 2026-05-09 14:47 | 54.59928 | -25.99444 | 39661 ft | 430 kts | 80° |
| 2026-05-09 14:47 | 54.60008 | -25.89130 | 39661 ft | 430 kts | 80° |
| 2026-05-09 14:48 | 54.60079 | -25.78881 | 39659 ft | 430 kts | 80° |
| 2026-05-09 14:48 | 54.60140 | -25.68578 | 39656 ft | 428 kts | 80° |
| 2026-05-09 14:49 | 54.60192 | -25.58328 | 39656 ft | 427 kts | 80° |
| 2026-05-09 14:49 | 54.60239 | -25.48089 | 39658 ft | 427 kts | 80° |
| 2026-05-09 14:50 | 54.60276 | -25.37833 | 39656 ft | 428 kts | 80° |
| 2026-05-09 14:50 | 54.60298 | -25.27628 | 39655 ft | 428 kts | 80° |
| 2026-05-09 14:51 | 54.60319 | -25.17372 | 39657 ft | 428 kts | 80° |
| 2026-05-09 14:51 | 54.60334 | -25.07090 | 39652 ft | 428 kts | 80° |
| 2026-05-09 14:52 | 54.60337 | -24.96823 | 39675 ft | 428 kts | 80° |
| 2026-05-09 14:52 | 54.60331 | -24.86523 | 39654 ft | 429 kts | 80° |
| 2026-05-09 14:53 | 54.60315 | -24.76301 | 39648 ft | 429 kts | 80° |
| 2026-05-09 14:53 | 54.60291 | -24.65998 | 39651 ft | 429 kts | 81° |
| 2026-05-09 14:54 | 54.60257 | -24.55690 | 39641 ft | 429 kts | 81° |
| 2026-05-09 14:54 | 54.60215 | -24.45387 | 39662 ft | 429 kts | 81° |
| 2026-05-09 14:55 | 54.60162 | -24.35130 | 39659 ft | 427 kts | 81° |
| 2026-05-09 14:55 | 54.60103 | -24.24901 | 39645 ft | 426 kts | 81° |
| 2026-05-09 14:56 | 54.60037 | -24.14671 | 39642 ft | 426 kts | 81° |
| 2026-05-09 14:56 | 54.59961 | -24.04433 | 39640 ft | 427 kts | 81° |
| 2026-05-09 14:57 | 54.59877 | -23.94254 | 39640 ft | 427 kts | 81° |
| 2026-05-09 14:57 | 54.59783 | -23.84017 | 39642 ft | 427 kts | 81° |
| 2026-05-09 14:58 | 54.59681 | -23.73758 | 39649 ft | 427 kts | 82° |
| 2026-05-09 14:58 | 54.59570 | -23.63538 | 39637 ft | 426 kts | 82° |
| 2026-05-09 14:59 | 54.59452 | -23.53374 | 39637 ft | 426 kts | 82° |
| 2026-05-09 14:59 | 54.59324 | -23.43140 | 39637 ft | 426 kts | 82° |
| 2026-05-09 15:00 | 54.59188 | -23.32919 | 39640 ft | 426 kts | 82° |
| 2026-05-09 15:00 | 54.59043 | -23.22704 | 39640 ft | 426 kts | 82° |
| 2026-05-09 15:01 | 54.58808 | -23.07453 | 39638 ft | 425 kts | 82° |
| 2026-05-09 15:02 | 54.58642 | -22.97255 | 39629 ft | 425 kts | 82° |
| 2026-05-09 15:02 | 54.58468 | -22.87070 | 39627 ft | 425 kts | 82° |
| 2026-05-09 15:03 | 54.58285 | -22.76872 | 39631 ft | 425 kts | 82° |
| 2026-05-09 15:03 | 54.58094 | -22.66684 | 39630 ft | 425 kts | 82° |
| 2026-05-09 15:04 | 54.57893 | -22.56499 | 39623 ft | 425 kts | 82° |
| 2026-05-09 15:06 | 54.57007 | -22.15785 | 39624 ft | 426 kts | 83° |
| 2026-05-09 15:06 | 54.56763 | -22.05575 | 39620 ft | 426 kts | 83° |
| 2026-05-09 15:07 | 54.56511 | -21.95365 | 39620 ft | 427 kts | 83° |
| 2026-05-09 15:07 | 54.56250 | -21.85117 | 39616 ft | 428 kts | 83° |
| 2026-05-09 15:08 | 54.55979 | -21.74863 | 39616 ft | 428 kts | 84° |
| 2026-05-09 15:08 | 54.55558 | -21.59561 | 39613 ft | 428 kts | 84° |
| 2026-05-09 15:10 | 54.54324 | -21.18434 | 39603 ft | 431 kts | 84° |
| 2026-05-09 15:11 | 54.53993 | -21.08180 | 39606 ft | 431 kts | 84° |
| 2026-05-09 15:11 | 54.53653 | -20.97842 | 39603 ft | 432 kts | 84° |
| 2026-05-09 15:12 | 54.53305 | -20.87519 | 39595 ft | 432 kts | 84° |
| 2026-05-09 15:12 | 54.52951 | -20.77202 | 39608 ft | 432 kts | 85° |
| 2026-05-09 15:13 | 54.52650 | -20.68587 | 39603 ft | 434 kts | 85° |
| 2026-05-09 15:13 | 54.52276 | -20.58194 | 39589 ft | 435 kts | 85° |
| 2026-05-09 15:14 | 54.51892 | -20.47808 | 39595 ft | 435 kts | 85° |
| 2026-05-09 15:14 | 54.51495 | -20.37406 | 39593 ft | 435 kts | 85° |
| 2026-05-09 15:15 | 54.51091 | -20.27005 | 39586 ft | 435 kts | 85° |
| 2026-05-09 15:15 | 54.50681 | -20.16602 | 39594 ft | 437 kts | 86° |
| 2026-05-09 15:16 | 54.50260 | -20.06131 | 39587 ft | 439 kts | 86° |
| 2026-05-09 15:16 | 54.49216 | -19.95710 | 39587 ft | 451 kts | 96° |
| 2026-05-09 15:17 | 54.47484 | -19.85308 | 39582 ft | 454 kts | 98° |
| 2026-05-09 15:17 | 54.45620 | -19.74910 | 39582 ft | 454 kts | 99° |
| 2026-05-09 15:18 | 54.43745 | -19.64524 | 39578 ft | 454 kts | 99° |
| 2026-05-09 15:18 | 54.41882 | -19.54142 | 39578 ft | 456 kts | 99° |
| 2026-05-09 15:19 | 54.40010 | -19.43699 | 39574 ft | 458 kts | 99° |
| 2026-05-09 15:19 | 54.38132 | -19.33331 | 39572 ft | 458 kts | 99° |
| 2026-05-09 15:20 | 54.35283 | -19.17697 | 39567 ft | 458 kts | 99° |
| 2026-05-09 15:21 | 54.33377 | -19.07276 | 39559 ft | 458 kts | 99° |
| 2026-05-09 15:21 | 54.31459 | -18.96860 | 39558 ft | 460 kts | 99° |
| 2026-05-09 15:22 | 54.29512 | -18.86334 | 39564 ft | 466 kts | 100° |
| 2026-05-09 15:22 | 54.27534 | -18.75739 | 39554 ft | 468 kts | 101° |
| 2026-05-09 15:23 | 54.25537 | -18.65129 | 39555 ft | 468 kts | 101° |
| 2026-05-09 15:23 | 54.23551 | -18.54603 | 39546 ft | 468 kts | 101° |
| 2026-05-09 15:24 | 54.21541 | -18.44005 | 39546 ft | 468 kts | 101° |
| 2026-05-09 15:24 | 54.19523 | -18.33422 | 39546 ft | 468 kts | 101° |
| 2026-05-09 15:25 | 54.17490 | -18.22823 | 39540 ft | 470 kts | 101° |
| 2026-05-09 15:25 | 54.15443 | -18.12205 | 39537 ft | 472 kts | 101° |
| 2026-05-09 15:26 | 54.12338 | -17.96227 | 39530 ft | 474 kts | 102° |
| 2026-05-09 15:26 | 54.10266 | -17.85638 | 39529 ft | 474 kts | 102° |
| 2026-05-09 15:27 | 54.08171 | -17.74994 | 39524 ft | 474 kts | 102° |
| 2026-05-09 15:27 | 54.06065 | -17.64346 | 39536 ft | 474 kts | 102° |
| 2026-05-09 15:28 | 54.03946 | -17.53681 | 39516 ft | 477 kts | 102° |
| 2026-05-09 15:28 | 54.01809 | -17.42994 | 39516 ft | 477 kts | 102° |
| 2026-05-09 15:29 | 53.99676 | -17.32387 | 39518 ft | 477 kts | 103° |
| 2026-05-09 15:29 | 53.97517 | -17.21710 | 39511 ft | 477 kts | 103° |
| 2026-05-09 15:30 | 53.95351 | -17.11055 | 39511 ft | 477 kts | 103° |
| 2026-05-09 15:30 | 53.93174 | -17.00402 | 39512 ft | 477 kts | 103° |
| 2026-05-09 15:31 | 53.90988 | -16.89758 | 39501 ft | 478 kts | 103° |
| 2026-05-09 15:31 | 53.88788 | -16.79105 | 39498 ft | 479 kts | 103° |
| 2026-05-09 15:32 | 53.86589 | -16.68517 | 39494 ft | 479 kts | 103° |
| 2026-05-09 15:32 | 53.84369 | -16.57879 | 39505 ft | 479 kts | 104° |
| 2026-05-09 15:33 | 53.82140 | -16.47263 | 39493 ft | 478 kts | 104° |
| 2026-05-09 15:33 | 53.79909 | -16.36688 | 39487 ft | 477 kts | 104° |
| 2026-05-09 15:34 | 53.77665 | -16.26100 | 39482 ft | 478 kts | 104° |
| 2026-05-09 15:34 | 53.75427 | -16.15600 | 39478 ft | 478 kts | 104° |
| 2026-05-09 15:35 | 53.73167 | -16.05056 | 39479 ft | 478 kts | 104° |
| 2026-05-09 15:35 | 53.70894 | -15.94502 | 39479 ft | 478 kts | 104° |
| 2026-05-09 15:36 | 53.68612 | -15.83957 | 39475 ft | 477 kts | 104° |
| 2026-05-09 15:36 | 53.66329 | -15.73468 | 39471 ft | 475 kts | 105° |
| 2026-05-09 15:37 | 53.64041 | -15.63009 | 39468 ft | 475 kts | 105° |
| 2026-05-09 15:37 | 53.61747 | -15.52572 | 39460 ft | 475 kts | 105° |
| 2026-05-09 15:38 | 53.59457 | -15.42204 | 39459 ft | 475 kts | 105° |
| 2026-05-09 15:38 | 53.57144 | -15.31785 | 39457 ft | 475 kts | 105° |
| 2026-05-09 15:39 | 53.54821 | -15.21376 | 39452 ft | 475 kts | 105° |
| 2026-05-09 15:39 | 53.52489 | -15.10975 | 39461 ft | 476 kts | 106° |
| 2026-05-09 15:40 | 53.50487 | -15.00401 | 39446 ft | 471 kts | 96° |
| 2026-05-09 15:40 | 53.50014 | -14.89523 | 39440 ft | 466 kts | 86° |
| 2026-05-09 15:41 | 53.50014 | -14.78643 | 39438 ft | 465 kts | 85° |
| 2026-05-09 15:41 | 53.50081 | -14.67774 | 39438 ft | 466 kts | 85° |
| 2026-05-09 15:42 | 53.50119 | -14.56945 | 39438 ft | 466 kts | 86° |
| 2026-05-09 15:42 | 53.50127 | -14.46007 | 39432 ft | 468 kts | 86° |
| 2026-05-09 15:43 | 53.50117 | -14.35048 | 39430 ft | 469 kts | 86° |
| 2026-05-09 15:43 | 53.50096 | -14.24094 | 39430 ft | 469 kts | 86° |
| 2026-05-09 15:44 | 53.50067 | -14.13193 | 39422 ft | 469 kts | 86° |
| 2026-05-09 15:44 | 53.49958 | -14.02247 | 39424 ft | 472 kts | 91° |
| 2026-05-09 15:45 | 53.48792 | -13.91321 | 39415 ft | 477 kts | 99° |
| 2026-05-09 15:45 | 53.47255 | -13.80475 | 39417 ft | 478 kts | 100° |
| 2026-05-09 15:46 | 53.45646 | -13.69626 | 39424 ft | 478 kts | 100° |
| 2026-05-09 15:46 | 53.44040 | -13.58777 | 39416 ft | 478 kts | 101° |
| 2026-05-09 15:47 | 53.42445 | -13.47962 | 39406 ft | 478 kts | 101° |
| 2026-05-09 15:47 | 53.40854 | -13.37187 | 39406 ft | 479 kts | 101° |
| 2026-05-09 15:48 | 53.39236 | -13.26325 | 39391 ft | 480 kts | 101° |
| 2026-05-09 15:48 | 53.37605 | -13.15494 | 39391 ft | 480 kts | 101° |
| 2026-05-09 15:49 | 53.35963 | -13.04657 | 39388 ft | 480 kts | 101° |
| 2026-05-09 15:49 | 53.34313 | -12.93821 | 39401 ft | 480 kts | 101° |
| 2026-05-09 15:50 | 53.32659 | -12.83033 | 39384 ft | 481 kts | 102° |
| 2026-05-09 15:50 | 53.30985 | -12.72183 | 39383 ft | 481 kts | 99° |
| 2026-05-09 15:51 | 53.29305 | -12.61373 | 39381 ft | 479 kts | 101° |
| 2026-05-09 15:51 | 53.27621 | -12.50594 | 39368 ft | 479 kts | 102° |
| 2026-05-09 15:52 | 53.25073 | -12.34428 | 39370 ft | 479 kts | 102° |
| 2026-05-09 15:53 | 53.23362 | -12.23667 | 39366 ft | 480 kts | 101° |
| 2026-05-09 15:53 | 53.21650 | -12.12957 | 39351 ft | 480 kts | 103° |
| 2026-05-09 15:54 | 53.19918 | -12.02174 | 39357 ft | 481 kts | 101° |
| 2026-05-09 15:54 | 53.18177 | -11.91423 | 39350 ft | 481 kts | 102° |
| 2026-05-09 15:55 | 53.16415 | -11.80632 | 39362 ft | 481 kts | 103° |
| 2026-05-09 15:55 | 53.14658 | -11.69929 | 39343 ft | 483 kts | 102° |
| 2026-05-09 15:56 | 53.12869 | -11.59091 | 39338 ft | 484 kts | 103° |
| 2026-05-09 15:56 | 53.11077 | -11.48274 | 39341 ft | 485 kts | 103° |
| 2026-05-09 15:57 | 53.09274 | -11.37465 | 39336 ft | 484 kts | 102° |
| 2026-05-09 15:57 | 53.07468 | -11.26729 | 39335 ft | 485 kts | 103° |
| 2026-05-09 15:58 | 53.05642 | -11.15949 | 39335 ft | 485 kts | 103° |
| 2026-05-09 15:58 | 53.03806 | -11.05167 | 39335 ft | 484 kts | 104° |
| 2026-05-09 15:59 | 53.01959 | -10.94387 | 39321 ft | 485 kts | 103° |
| 2026-05-09 15:59 | 53.00114 | -10.83689 | 39313 ft | 484 kts | 103° |
| 2026-05-09 16:00 | 52.98545 | -10.74679 | 39310 ft | 485 kts | 104° |
| 2026-05-09 16:00 | 52.96665 | -10.63932 | 39307 ft | 485 kts | 103° |
| 2026-05-09 16:01 | 52.94793 | -10.53266 | 39300 ft | 484 kts | 104° |
| 2026-05-09 16:01 | 52.92900 | -10.42535 | 39291 ft | 485 kts | 103° |
| 2026-05-09 16:02 | 52.90996 | -10.31818 | 39292 ft | 484 kts | 103° |
| 2026-05-09 16:02 | 52.88124 | -10.15761 | 39299 ft | 484 kts | 105° |
| 2026-05-09 16:03 | 52.86199 | -10.05067 | 39284 ft | 485 kts | 105° |
| 2026-05-09 16:03 | 52.84261 | -9.94378 | 39285 ft | 485 kts | 105° |
| 2026-05-09 16:04 | 52.82320 | -9.83728 | 39271 ft | 485 kts | 105° |
| 2026-05-09 16:04 | 52.80361 | -9.73045 | 39272 ft | 486 kts | 105° |
| 2026-05-09 16:05 | 52.78391 | -9.62361 | 39263 ft | 485 kts | 106° |
| 2026-05-09 16:05 | 52.76409 | -9.51677 | 39253 ft | 488 kts | 106° |
| 2026-05-09 16:06 | 52.74411 | -9.40967 | 39243 ft | 488 kts | 105° |
| 2026-05-09 16:06 | 52.72414 | -9.30322 | 39241 ft | 489 kts | 106° |
| 2026-05-09 16:07 | 52.70392 | -9.19609 | 39241 ft | 489 kts | 107° |
| 2026-05-09 16:07 | 52.68360 | -9.08907 | 39237 ft | 489 kts | 106° |
| 2026-05-09 16:08 | 52.66324 | -8.98212 | 39239 ft | 490 kts | 106° |
| 2026-05-09 16:08 | 52.64276 | -8.87523 | 39236 ft | 489 kts | 106° |
| 2026-05-09 16:09 | 52.62218 | -8.76857 | 39236 ft | 488 kts | 107° |
| 2026-05-09 16:09 | 52.60147 | -8.66213 | 39232 ft | 489 kts | 106° |
| 2026-05-09 16:10 | 52.58063 | -8.55548 | 39221 ft | 488 kts | 106° |
| 2026-05-09 16:10 | 52.55990 | -8.44984 | 39212 ft | 490 kts | 107° |
| 2026-05-09 16:11 | 52.53890 | -8.34343 | 39205 ft | 488 kts | 107° |
| 2026-05-09 16:11 | 52.51783 | -8.23729 | 39206 ft | 489 kts | 108° |
| 2026-05-09 16:12 | 52.49664 | -8.13105 | 39206 ft | 489 kts | 107° |
| 2026-05-09 16:12 | 52.47538 | -8.02507 | 39198 ft | 488 kts | 107° |
| 2026-05-09 16:13 | 52.45408 | -7.91944 | 39202 ft | 489 kts | 107° |
| 2026-05-09 16:13 | 52.43281 | -7.81424 | 39197 ft | 489 kts | 108° |
| 2026-05-09 16:14 | 52.41128 | -7.70839 | 39192 ft | 489 kts | 108° |
| 2026-05-09 16:14 | 52.38964 | -7.60275 | 39192 ft | 489 kts | 108° |
| 2026-05-09 16:15 | 52.36789 | -7.49711 | 39190 ft | 490 kts | 108° |
| 2026-05-09 16:15 | 52.34605 | -7.39170 | 39191 ft | 491 kts | 109° |
| 2026-05-09 16:16 | 52.32400 | -7.28581 | 39182 ft | 492 kts | 109° |
| 2026-05-09 16:16 | 52.30186 | -7.18003 | 39180 ft | 492 kts | 109° |
| 2026-05-09 16:17 | 52.27960 | -7.07426 | 39186 ft | 491 kts | 109° |
| 2026-05-09 16:17 | 52.25723 | -6.96860 | 39185 ft | 493 kts | 109° |
| 2026-05-09 16:18 | 52.23472 | -6.86304 | 39182 ft | 493 kts | 110° |
| 2026-05-09 16:18 | 52.21203 | -6.75709 | 39182 ft | 495 kts | 110° |
| 2026-05-09 16:19 | 52.18931 | -6.65132 | 39184 ft | 495 kts | 110° |
| 2026-05-09 16:19 | 52.16669 | -6.54605 | 39179 ft | 494 kts | 110° |
| 2026-05-09 16:20 | 52.14377 | -6.44044 | 39184 ft | 495 kts | 110° |
| 2026-05-09 16:20 | 52.12066 | -6.33465 | 39185 ft | 495 kts | 111° |
| 2026-05-09 16:21 | 52.09742 | -6.22901 | 39174 ft | 496 kts | 111° |
| 2026-05-09 16:21 | 52.07421 | -6.12381 | 39177 ft | 493 kts | 111° |
| 2026-05-09 16:22 | 52.05086 | -6.01875 | 39170 ft | 494 kts | 112° |
| 2026-05-09 16:22 | 52.02354 | -5.91744 | 39174 ft | 493 kts | 117° |
| 2026-05-09 16:23 | 51.99365 | -5.81660 | 39165 ft | 493 kts | 117° |
| 2026-05-09 16:23 | 51.96452 | -5.71665 | 39159 ft | 492 kts | 117° |
| 2026-05-09 16:24 | 51.93566 | -5.61582 | 39149 ft | 493 kts | 116° |
| 2026-05-09 16:24 | 51.90692 | -5.51518 | 39147 ft | 491 kts | 117° |
| 2026-05-09 16:25 | 51.87814 | -5.41477 | 39154 ft | 489 kts | 116° |
| 2026-05-09 16:25 | 51.84948 | -5.31525 | 39135 ft | 488 kts | 117° |
| 2026-05-09 16:26 | 51.82067 | -5.21568 | 39139 ft | 489 kts | 117° |
| 2026-05-09 16:26 | 51.79185 | -5.11651 | 39125 ft | 488 kts | 117° |
| 2026-05-09 16:27 | 51.76331 | -5.01743 | 39125 ft | 489 kts | 115° |
| 2026-05-09 16:27 | 51.73683 | -4.91630 | 39126 ft | 489 kts | 115° |
| 2026-05-09 16:28 | 51.71066 | -4.81467 | 39114 ft | 490 kts | 114° |
| 2026-05-09 16:28 | 51.68418 | -4.71374 | 39113 ft | 486 kts | 115° |
| 2026-05-09 16:29 | 51.65775 | -4.61439 | 39107 ft | 485 kts | 115° |
| 2026-05-09 16:29 | 51.63102 | -4.51464 | 39106 ft | 485 kts | 115° |
| 2026-05-09 16:30 | 51.60418 | -4.41489 | 39095 ft | 485 kts | 115° |
| 2026-05-09 16:30 | 51.57725 | -4.31513 | 39099 ft | 485 kts | 116° |
| 2026-05-09 16:31 | 51.55086 | -4.21543 | 39087 ft | 484 kts | 111° |
| 2026-05-09 16:31 | 51.53466 | -4.11090 | 39084 ft | 486 kts | 103° |
| 2026-05-09 16:32 | 51.52417 | -4.02150 | 39082 ft | 487 kts | 102° |
| 2026-05-09 16:32 | 51.51042 | -3.89712 | 39083 ft | 487 kts | 102° |
| 2026-05-09 16:33 | 51.49840 | -3.78971 | 39069 ft | 487 kts | 102° |
| 2026-05-09 16:33 | 51.49227 | -3.73610 | 38859 ft | 487 kts | 103° |
| 2026-05-09 16:33 | 51.48613 | -3.68298 | 38497 ft | 485 kts | 103° |
| 2026-05-09 16:34 | 51.48029 | -3.62963 | 37922 ft | 485 kts | 99° |
| 2026-05-09 16:34 | 51.47654 | -3.57658 | 37314 ft | 485 kts | 98° |
| 2026-05-09 16:34 | 51.47315 | -3.52260 | 36673 ft | 486 kts | 98° |
| 2026-05-09 16:34 | 51.46993 | -3.46836 | 36023 ft | 487 kts | 98° |
| 2026-05-09 16:35 | 51.46680 | -3.41436 | 35325 ft | 489 kts | 98° |
| 2026-05-09 16:35 | 51.46365 | -3.35992 | 34606 ft | 488 kts | 98° |
| 2026-05-09 16:35 | 51.46054 | -3.30629 | 33734 ft | 479 kts | 98° |
| 2026-05-09 16:35 | 51.45745 | -3.25359 | 32907 ft | 468 kts | 98° |
| 2026-05-09 16:36 | 51.45434 | -3.20160 | 32109 ft | 468 kts | 98° |
| 2026-05-09 16:36 | 51.44457 | -3.04370 | 29631 ft | 478 kts | 98° |
| 2026-05-09 16:37 | 51.44132 | -2.99137 | 29030 ft | 474 kts | 98° |
| 2026-05-09 16:37 | 51.43805 | -2.93915 | 28446 ft | 469 kts | 98° |
| 2026-05-09 16:37 | 51.43479 | -2.88729 | 27837 ft | 464 kts | 98° |
| 2026-05-09 16:37 | 51.43154 | -2.83588 | 27277 ft | 460 kts | 98° |
| 2026-05-09 16:38 | 51.42831 | -2.78509 | 26685 ft | 456 kts | 98° |
| 2026-05-09 16:38 | 51.42510 | -2.73470 | 26105 ft | 453 kts | 98° |
| 2026-05-09 16:38 | 51.42187 | -2.68457 | 25533 ft | 450 kts | 98° |
| 2026-05-09 16:38 | 51.41864 | -2.63502 | 24949 ft | 446 kts | 97° |
| 2026-05-09 16:39 | 51.41540 | -2.58583 | 24367 ft | 444 kts | 97° |
| 2026-05-09 16:39 | 51.41215 | -2.53666 | 23796 ft | 441 kts | 97° |
| 2026-05-09 16:39 | 51.40889 | -2.48797 | 23150 ft | 438 kts | 97° |
| 2026-05-09 16:39 | 51.40564 | -2.43954 | 22567 ft | 433 kts | 97° |
| 2026-05-09 16:40 | 51.40242 | -2.39182 | 22009 ft | 429 kts | 98° |
| 2026-05-09 16:40 | 51.39919 | -2.34464 | 21433 ft | 425 kts | 98° |
| 2026-05-09 16:42 | 51.37681 | -2.02378 | 17450 ft | 405 kts | 98° |
| 2026-05-09 16:42 | 51.37362 | -1.97903 | 16914 ft | 401 kts | 98° |
| 2026-05-09 16:42 | 51.37048 | -1.93485 | 16373 ft | 397 kts | 98° |
| 2026-05-09 16:42 | 51.36737 | -1.89186 | 15850 ft | 393 kts | 98° |
| 2026-05-09 16:43 | 51.36422 | -1.84851 | 15306 ft | 390 kts | 97° |
| 2026-05-09 16:43 | 51.36109 | -1.80566 | 14923 ft | 384 kts | 97° |
| 2026-05-09 16:43 | 51.35804 | -1.76398 | 14797 ft | 367 kts | 98° |
| 2026-05-09 16:43 | 51.35518 | -1.72493 | 14692 ft | 340 kts | 97° |
| 2026-05-09 16:44 | 51.35252 | -1.68877 | 14575 ft | 315 kts | 97° |
| 2026-05-09 16:44 | 51.35002 | -1.65493 | 14433 ft | 298 kts | 98° |
| 2026-05-09 16:44 | 51.34761 | -1.62266 | 14297 ft | 289 kts | 97° |
| 2026-05-09 16:44 | 51.34603 | -1.60152 | 14216 ft | 290 kts | 97° |
| 2026-05-09 16:45 | 51.34361 | -1.56935 | 14064 ft | 290 kts | 97° |
| 2026-05-09 16:45 | 51.34120 | -1.53706 | 13911 ft | 300 kts | 97° |
| 2026-05-09 16:45 | 51.33864 | -1.50315 | 13828 ft | 311 kts | 97° |
| 2026-05-09 16:45 | 51.33606 | -1.46908 | 13692 ft | 306 kts | 97° |
| 2026-05-09 16:46 | 51.33351 | -1.43527 | 13372 ft | 306 kts | 97° |
| 2026-05-09 16:46 | 51.33095 | -1.40149 | 13048 ft | 306 kts | 98° |
| 2026-05-09 16:46 | 51.32836 | -1.36772 | 12783 ft | 305 kts | 97° |
| 2026-05-09 16:46 | 51.32580 | -1.33426 | 12563 ft | 302 kts | 97° |
| 2026-05-09 16:47 | 51.32324 | -1.30098 | 12364 ft | 302 kts | 98° |
| 2026-05-09 16:47 | 51.32071 | -1.26824 | 12158 ft | 300 kts | 98° |
| 2026-05-09 16:47 | 51.31814 | -1.23517 | 11952 ft | 299 kts | 98° |
| 2026-05-09 16:47 | 51.31557 | -1.20233 | 11735 ft | 297 kts | 97° |
| 2026-05-09 16:48 | 51.31339 | -1.16945 | 11583 ft | 297 kts | 94° |
| 2026-05-09 16:48 | 51.31273 | -1.13668 | 11354 ft | 295 kts | 91° |
| 2026-05-09 16:48 | 51.31247 | -1.10377 | 11134 ft | 295 kts | 91° |
| 2026-05-09 16:48 | 51.31223 | -1.07137 | 10933 ft | 291 kts | 91° |
| 2026-05-09 16:49 | 51.31196 | -1.03890 | 10733 ft | 292 kts | 91° |
| 2026-05-09 16:49 | 51.31168 | -1.00637 | 10533 ft | 290 kts | 91° |
| 2026-05-09 16:49 | 51.31138 | -0.97453 | 10330 ft | 289 kts | 91° |
| 2026-05-09 16:50 | 51.31074 | -0.91072 | 9932 ft | 286 kts | 91° |
| 2026-05-09 16:50 | 51.31041 | -0.87900 | 9739 ft | 285 kts | 91° |
| 2026-05-09 16:50 | 51.31008 | -0.84759 | 9529 ft | 283 kts | 91° |
| 2026-05-09 16:50 | 51.30975 | -0.81625 | 9405 ft | 278 kts | 91° |
| 2026-05-09 16:51 | 51.30941 | -0.78588 | 9338 ft | 270 kts | 91° |
| 2026-05-09 16:51 | 51.30909 | -0.75610 | 9248 ft | 264 kts | 91° |
| 2026-05-09 16:51 | 51.30880 | -0.72714 | 9151 ft | 257 kts | 91° |
| 2026-05-09 16:51 | 51.30843 | -0.69884 | 9021 ft | 252 kts | 91° |
| 2026-05-09 16:52 | 51.30806 | -0.67109 | 8883 ft | 248 kts | 91° |
| 2026-05-09 16:52 | 51.30770 | -0.64389 | 8784 ft | 247 kts | 91° |
| 2026-05-09 16:52 | 51.30734 | -0.61647 | 8680 ft | 247 kts | 91° |
| 2026-05-09 16:52 | 51.30698 | -0.58910 | 8544 ft | 247 kts | 91° |
| 2026-05-09 16:53 | 51.30662 | -0.56181 | 8262 ft | 247 kts | 91° |
| 2026-05-09 16:53 | 51.30625 | -0.53456 | 7976 ft | 249 kts | 91° |
| 2026-05-09 16:53 | 51.30590 | -0.50694 | 7675 ft | 249 kts | 90° |
| 2026-05-09 16:53 | 51.30554 | -0.47926 | 7375 ft | 250 kts | 90° |
| 2026-05-09 16:54 | 51.30523 | -0.45103 | 7096 ft | 249 kts | 88° |
| 2026-05-09 16:54 | 51.30797 | -0.42439 | 7050 ft | 238 kts | 65° |
| 2026-05-09 16:54 | 51.31808 | -0.40437 | 7061 ft | 233 kts | 34° |
| 2026-05-09 16:54 | 51.33331 | -0.39587 | 7075 ft | 235 kts | 4° |
| 2026-05-09 16:55 | 51.34903 | -0.40128 | 7070 ft | 237 kts | 332° |
| 2026-05-09 16:55 | 51.36093 | -0.41925 | 7071 ft | 239 kts | 301° |
| 2026-05-09 16:55 | 51.36538 | -0.44468 | 7075 ft | 242 kts | 271° |
| 2026-05-09 16:55 | 51.36389 | -0.47145 | 7074 ft | 244 kts | 262° |
| 2026-05-09 16:56 | 51.36095 | -0.49845 | 7073 ft | 246 kts | 261° |
| 2026-05-09 16:56 | 51.35787 | -0.52547 | 7069 ft | 246 kts | 261° |
| 2026-05-09 16:56 | 51.35471 | -0.55248 | 7067 ft | 247 kts | 261° |
| 2026-05-09 16:56 | 51.35297 | -0.57968 | 6958 ft | 245 kts | 274° |
| 2026-05-09 16:57 | 51.35482 | -0.60668 | 6837 ft | 244 kts | 279° |
| 2026-05-09 16:57 | 51.35744 | -0.63309 | 6712 ft | 243 kts | 281° |
| 2026-05-09 16:57 | 51.36012 | -0.65991 | 6532 ft | 244 kts | 281° |
| 2026-05-09 16:57 | 51.36266 | -0.68661 | 6280 ft | 243 kts | 281° |
| 2026-05-09 16:58 | 51.36537 | -0.71341 | 6013 ft | 242 kts | 283° |
| 2026-05-09 16:58 | 51.37233 | -0.73735 | 5748 ft | 238 kts | 313° |
| 2026-05-09 16:58 | 51.38565 | -0.75203 | 5504 ft | 232 kts | 342° |
| 2026-05-09 16:58 | 51.40097 | -0.76015 | 5212 ft | 233 kts | 342° |
| 2026-05-09 16:59 | 51.41619 | -0.76974 | 4843 ft | 238 kts | 341° |
| 2026-05-09 16:59 | 51.43190 | -0.77870 | 4401 ft | 242 kts | 347° |
| 2026-05-09 16:59 | 51.44863 | -0.78501 | 3865 ft | 252 kts | 350° |
| 2026-05-09 16:59 | 51.46618 | -0.79008 | 3313 ft | 260 kts | 360° |
| 2026-05-09 17:00 | 51.48319 | -0.78352 | 3022 ft | 250 kts | 36° |
| 2026-05-09 17:00 | 51.49347 | -0.76292 | 2999 ft | 233 kts | 72° |
| 2026-05-09 17:00 | 51.49343 | -0.73800 | 3005 ft | 220 kts | 105° |
| 2026-05-09 17:00 | 51.48895 | -0.71525 | 2933 ft | 210 kts | 105° |
| 2026-05-09 17:01 | 51.48455 | -0.69299 | 2678 ft | 209 kts | 105° |
| 2026-05-09 17:01 | 51.48047 | -0.67099 | 2394 ft | 208 kts | 102° |
| 2026-05-09 17:01 | 51.47829 | -0.64818 | 2123 ft | 206 kts | 91° |
| 2026-05-09 17:01 | 51.47817 | -0.62521 | 1842 ft | 205 kts | 89° |
| 2026-05-09 17:02 | 51.47795 | -0.60280 | 1577 ft | 193 kts | 91° |
| 2026-05-09 17:02 | 51.47751 | -0.58225 | 1351 ft | 178 kts | 90° |
| 2026-05-09 17:02 | 51.47738 | -0.56311 | 1076 ft | 164 kts | 89° |
| 2026-05-09 17:02 | 51.47727 | -0.54557 | 853 ft | 151 kts | 89° |
| 2026-05-09 17:03 | 51.47736 | -0.52927 | 631 ft | 139 kts | 88° |
| 2026-05-09 17:04 | 51.47753 | -0.45597 | 90 ft | 25 kts | 97° |
| 2026-05-09 17:05 | 51.47667 | -0.45468 | 92 ft | 13 kts | 173° |
| 2026-05-09 17:05 | 51.47612 | -0.45487 | 92 ft | 5 kts | 224° |
| 2026-05-09 17:05 | 51.47599 | -0.45553 | 93 ft | 7 kts | 261° |
| 2026-05-09 17:05 | 51.47596 | -0.45641 | 94 ft | 9 kts | 267° |
| 2026-05-09 17:06 | 51.47592 | -0.45750 | 92 ft | 11 kts | 267° |
| 2026-05-09 17:06 | 51.47595 | -0.45878 | 93 ft | 12 kts | 272° |
| 2026-05-09 17:06 | 51.47595 | -0.46023 | 93 ft | 14 kts | 269° |
| 2026-05-09 17:06 | 51.47595 | -0.46189 | 93 ft | 16 kts | 270° |
| 2026-05-09 17:07 | 51.47595 | -0.46372 | 93 ft | 17 kts | 270° |
| 2026-05-09 17:07 | 51.47596 | -0.46506 | 92 ft | 18 kts | 269° |
| 2026-05-09 17:07 | 51.47594 | -0.46788 | 93 ft | 20 kts | 267° |
| 2026-05-09 17:07 | 51.47557 | -0.46918 | 95 ft | 10 kts | 206° |
| 2026-05-09 17:08 | 51.47501 | -0.46883 | 94 ft | 8 kts | 116° |
| 2026-05-09 17:08 | 51.47418 | -0.46744 | 93 ft | 10 kts | 163° |
| 2026-05-09 17:08 | 51.47347 | -0.46731 | 89 ft | 8 kts | 178° |
| 2026-05-09 17:09 | 51.47332 | -0.46723 | 90 ft | 3 kts | 150° |
| 2026-05-09 17:09 | 51.47321 | -0.46684 | 90 ft | 4 kts | 99° |
| 2026-05-09 17:09 | 51.47319 | -0.46628 | 90 ft | 6 kts | 91° |
| 2026-05-09 17:09 | 51.47319 | -0.46581 | 89 ft | 0 kts | 90° |